<?xml version="1.0" encoding="UTF-8" standalone="no" ?>
<gpx xmlns="http://www.topografix.com/GPX/1/1" xmlns:xsi="http://www.w3.org/2001/XMLSchema-instance" xsi:schemaLocation="http://www.topografix.com/GPX/1/1 http://www.topografix.com/GPX/1/1/gpx.xsd" version="1.1" creator="VisuGPX - https://www.visugpx.com">
  <metadata>
    <name>83 - V - le Muy </name>
    <desc><![CDATA[83 - V - le Muy : Sur la piste des points d'eau
2021-12-10]]></desc>
  </metadata>
  <trk>
    <name><![CDATA[la Muy lacs du Vendredi 2021-12-10-01]]></name>
    <extensions>
      <line xmlns="http://www.topografix.com/GPX/gpx_style/0/2">
        <width>4</width>
      </line>
    </extensions>
    <trkseg>
      <trkpt lat="43.46895" lon="6.61936">
        <ele>66.1</ele>
        <time>2021-12-10T13:10:37.000Z</time>
      </trkpt>
      <trkpt lat="43.46895" lon="6.61936">
        <ele>66.1</ele>
        <time>2021-12-10T13:10:38.000Z</time>
      </trkpt>
      <trkpt lat="43.46889" lon="6.61946">
        <ele>66.2</ele>
        <time>2021-12-10T13:11:31.000Z</time>
      </trkpt>
      <trkpt lat="43.46884" lon="6.61957">
        <ele>66</ele>
        <time>2021-12-10T13:11:40.000Z</time>
      </trkpt>
      <trkpt lat="43.46877" lon="6.61968">
        <ele>65.6</ele>
        <time>2021-12-10T13:11:47.000Z</time>
      </trkpt>
      <trkpt lat="43.46871" lon="6.61978">
        <ele>65.3</ele>
        <time>2021-12-10T13:11:54.000Z</time>
      </trkpt>
      <trkpt lat="43.46864" lon="6.61986">
        <ele>65.3</ele>
        <time>2021-12-10T13:12:09.000Z</time>
      </trkpt>
      <trkpt lat="43.46861" lon="6.61998">
        <ele>65.7</ele>
        <time>2021-12-10T13:12:19.000Z</time>
      </trkpt>
      <trkpt lat="43.46857" lon="6.6201">
        <ele>65</ele>
        <time>2021-12-10T13:12:31.000Z</time>
      </trkpt>
      <trkpt lat="43.46853" lon="6.62023">
        <ele>65.4</ele>
        <time>2021-12-10T13:12:41.000Z</time>
      </trkpt>
      <trkpt lat="43.46851" lon="6.62036">
        <ele>65.3</ele>
        <time>2021-12-10T13:12:50.000Z</time>
      </trkpt>
      <trkpt lat="43.46847" lon="6.62046">
        <ele>65.2</ele>
        <time>2021-12-10T13:12:59.000Z</time>
      </trkpt>
      <trkpt lat="43.4684" lon="6.62057">
        <ele>65.3</ele>
        <time>2021-12-10T13:13:08.000Z</time>
      </trkpt>
      <trkpt lat="43.46835" lon="6.62067">
        <ele>64.7</ele>
        <time>2021-12-10T13:13:16.000Z</time>
      </trkpt>
      <trkpt lat="43.46827" lon="6.62075">
        <ele>64.7</ele>
        <time>2021-12-10T13:13:24.000Z</time>
      </trkpt>
      <trkpt lat="43.46818" lon="6.62079">
        <ele>64.1</ele>
        <time>2021-12-10T13:13:32.000Z</time>
      </trkpt>
      <trkpt lat="43.46809" lon="6.62081">
        <ele>64.1</ele>
        <time>2021-12-10T13:13:40.000Z</time>
      </trkpt>
      <trkpt lat="43.46799" lon="6.62081">
        <ele>63.8</ele>
        <time>2021-12-10T13:13:49.000Z</time>
      </trkpt>
      <trkpt lat="43.4679" lon="6.62084">
        <ele>63.5</ele>
        <time>2021-12-10T13:13:57.000Z</time>
      </trkpt>
      <trkpt lat="43.46781" lon="6.62086">
        <ele>63</ele>
        <time>2021-12-10T13:14:05.000Z</time>
      </trkpt>
      <trkpt lat="43.46773" lon="6.62094">
        <ele>63</ele>
        <time>2021-12-10T13:14:14.000Z</time>
      </trkpt>
      <trkpt lat="43.46769" lon="6.62107">
        <ele>62.7</ele>
        <time>2021-12-10T13:14:21.000Z</time>
      </trkpt>
      <trkpt lat="43.46763" lon="6.62117">
        <ele>63.6</ele>
        <time>2021-12-10T13:14:29.000Z</time>
      </trkpt>
      <trkpt lat="43.46757" lon="6.62126">
        <ele>63.2</ele>
        <time>2021-12-10T13:14:37.000Z</time>
      </trkpt>
      <trkpt lat="43.46752" lon="6.62137">
        <ele>62.9</ele>
        <time>2021-12-10T13:14:46.000Z</time>
      </trkpt>
      <trkpt lat="43.46746" lon="6.62147">
        <ele>62.9</ele>
        <time>2021-12-10T13:14:53.000Z</time>
      </trkpt>
      <trkpt lat="43.46748" lon="6.6216">
        <ele>62.9</ele>
        <time>2021-12-10T13:15:00.000Z</time>
      </trkpt>
      <trkpt lat="43.46746" lon="6.62173">
        <ele>62.4</ele>
        <time>2021-12-10T13:15:08.000Z</time>
      </trkpt>
      <trkpt lat="43.46745" lon="6.62186">
        <ele>63.6</ele>
        <time>2021-12-10T13:15:16.000Z</time>
      </trkpt>
      <trkpt lat="43.46745" lon="6.62198">
        <ele>63.7</ele>
        <time>2021-12-10T13:15:23.000Z</time>
      </trkpt>
      <trkpt lat="43.46744" lon="6.62211">
        <ele>64.2</ele>
        <time>2021-12-10T13:15:30.000Z</time>
      </trkpt>
      <trkpt lat="43.46743" lon="6.62225">
        <ele>63.9</ele>
        <time>2021-12-10T13:15:39.000Z</time>
      </trkpt>
      <trkpt lat="43.46742" lon="6.62239">
        <ele>64.1</ele>
        <time>2021-12-10T13:15:47.000Z</time>
      </trkpt>
      <trkpt lat="43.4674" lon="6.62253">
        <ele>63.8</ele>
        <time>2021-12-10T13:15:55.000Z</time>
      </trkpt>
      <trkpt lat="43.4674" lon="6.62266">
        <ele>64</ele>
        <time>2021-12-10T13:16:03.000Z</time>
      </trkpt>
      <trkpt lat="43.4674" lon="6.62279">
        <ele>62.9</ele>
        <time>2021-12-10T13:16:09.000Z</time>
      </trkpt>
      <trkpt lat="43.46744" lon="6.62292">
        <ele>63.3</ele>
        <time>2021-12-10T13:16:18.000Z</time>
      </trkpt>
      <trkpt lat="43.46748" lon="6.62303">
        <ele>63.5</ele>
        <time>2021-12-10T13:16:26.000Z</time>
      </trkpt>
      <trkpt lat="43.46752" lon="6.62315">
        <ele>63.4</ele>
        <time>2021-12-10T13:16:33.000Z</time>
      </trkpt>
      <trkpt lat="43.46758" lon="6.62325">
        <ele>62.7</ele>
        <time>2021-12-10T13:16:42.000Z</time>
      </trkpt>
      <trkpt lat="43.46765" lon="6.62335">
        <ele>62.1</ele>
        <time>2021-12-10T13:16:51.000Z</time>
      </trkpt>
      <trkpt lat="43.46774" lon="6.62337">
        <ele>60.4</ele>
        <time>2021-12-10T13:17:48.000Z</time>
      </trkpt>
      <trkpt lat="43.46782" lon="6.62331">
        <ele>59.7</ele>
        <time>2021-12-10T13:17:57.000Z</time>
      </trkpt>
      <trkpt lat="43.4679" lon="6.62325">
        <ele>59.7</ele>
        <time>2021-12-10T13:18:06.000Z</time>
      </trkpt>
      <trkpt lat="43.46798" lon="6.6232">
        <ele>59.9</ele>
        <time>2021-12-10T13:18:15.000Z</time>
      </trkpt>
      <trkpt lat="43.46805" lon="6.62309">
        <ele>60.3</ele>
        <time>2021-12-10T13:18:25.000Z</time>
      </trkpt>
      <trkpt lat="43.46815" lon="6.62308">
        <ele>60.5</ele>
        <time>2021-12-10T13:18:35.000Z</time>
      </trkpt>
      <trkpt lat="43.46823" lon="6.62302">
        <ele>60.7</ele>
        <time>2021-12-10T13:18:43.000Z</time>
      </trkpt>
      <trkpt lat="43.46832" lon="6.62299">
        <ele>61.2</ele>
        <time>2021-12-10T13:18:51.000Z</time>
      </trkpt>
      <trkpt lat="43.4684" lon="6.62306">
        <ele>60.6</ele>
        <time>2021-12-10T13:19:03.000Z</time>
      </trkpt>
      <trkpt lat="43.46849" lon="6.62307">
        <ele>60.8</ele>
        <time>2021-12-10T13:19:53.000Z</time>
      </trkpt>
      <trkpt lat="43.46858" lon="6.62313">
        <ele>60</ele>
        <time>2021-12-10T13:20:05.000Z</time>
      </trkpt>
      <trkpt lat="43.46867" lon="6.62316">
        <ele>60</ele>
        <time>2021-12-10T13:20:15.000Z</time>
      </trkpt>
      <trkpt lat="43.46875" lon="6.62322">
        <ele>60.2</ele>
        <time>2021-12-10T13:20:24.000Z</time>
      </trkpt>
      <trkpt lat="43.46884" lon="6.62326">
        <ele>60.7</ele>
        <time>2021-12-10T13:20:34.000Z</time>
      </trkpt>
      <trkpt lat="43.46891" lon="6.62333">
        <ele>60.2</ele>
        <time>2021-12-10T13:20:43.000Z</time>
      </trkpt>
      <trkpt lat="43.46899" lon="6.6234">
        <ele>59.4</ele>
        <time>2021-12-10T13:20:54.000Z</time>
      </trkpt>
      <trkpt lat="43.46904" lon="6.62351">
        <ele>58.9</ele>
        <time>2021-12-10T13:21:05.000Z</time>
      </trkpt>
      <trkpt lat="43.46907" lon="6.62364">
        <ele>58.5</ele>
        <time>2021-12-10T13:21:14.000Z</time>
      </trkpt>
      <trkpt lat="43.46907" lon="6.62378">
        <ele>58</ele>
        <time>2021-12-10T13:21:23.000Z</time>
      </trkpt>
      <trkpt lat="43.46903" lon="6.6239">
        <ele>58.8</ele>
        <time>2021-12-10T13:21:34.000Z</time>
      </trkpt>
      <trkpt lat="43.46897" lon="6.62399">
        <ele>59.7</ele>
        <time>2021-12-10T13:21:49.000Z</time>
      </trkpt>
      <trkpt lat="43.46892" lon="6.6241">
        <ele>59.5</ele>
        <time>2021-12-10T13:22:02.000Z</time>
      </trkpt>
      <trkpt lat="43.46891" lon="6.62423">
        <ele>57.2</ele>
        <time>2021-12-10T13:22:14.000Z</time>
      </trkpt>
      <trkpt lat="43.46882" lon="6.62426">
        <ele>55.3</ele>
        <time>2021-12-10T13:22:32.000Z</time>
      </trkpt>
      <trkpt lat="43.46877" lon="6.62416">
        <ele>55.8</ele>
        <time>2021-12-10T13:22:44.000Z</time>
      </trkpt>
      <trkpt lat="43.46868" lon="6.62418">
        <ele>54.5</ele>
        <time>2021-12-10T13:23:26.000Z</time>
      </trkpt>
      <trkpt lat="43.46859" lon="6.62423">
        <ele>53.3</ele>
        <time>2021-12-10T13:23:41.000Z</time>
      </trkpt>
      <trkpt lat="43.46857" lon="6.62435">
        <ele>53.3</ele>
        <time>2021-12-10T13:23:53.000Z</time>
      </trkpt>
      <trkpt lat="43.46864" lon="6.62445">
        <ele>54.3</ele>
        <time>2021-12-10T13:24:05.000Z</time>
      </trkpt>
      <trkpt lat="43.46868" lon="6.62456">
        <ele>54</ele>
        <time>2021-12-10T13:24:16.000Z</time>
      </trkpt>
      <trkpt lat="43.46874" lon="6.62467">
        <ele>53.3</ele>
        <time>2021-12-10T13:24:27.000Z</time>
      </trkpt>
      <trkpt lat="43.46879" lon="6.62477">
        <ele>52.9</ele>
        <time>2021-12-10T13:24:38.000Z</time>
      </trkpt>
      <trkpt lat="43.46885" lon="6.62488">
        <ele>51.3</ele>
        <time>2021-12-10T13:24:48.000Z</time>
      </trkpt>
      <trkpt lat="43.4689" lon="6.62499">
        <ele>50.4</ele>
        <time>2021-12-10T13:24:58.000Z</time>
      </trkpt>
      <trkpt lat="43.46895" lon="6.62509">
        <ele>49</ele>
        <time>2021-12-10T13:25:11.000Z</time>
      </trkpt>
      <trkpt lat="43.469" lon="6.62521">
        <ele>48.5</ele>
        <time>2021-12-10T13:25:22.000Z</time>
      </trkpt>
      <trkpt lat="43.46903" lon="6.62533">
        <ele>47.1</ele>
        <time>2021-12-10T13:25:33.000Z</time>
      </trkpt>
      <trkpt lat="43.46906" lon="6.62545">
        <ele>45.8</ele>
        <time>2021-12-10T13:25:42.000Z</time>
      </trkpt>
      <trkpt lat="43.46907" lon="6.62558">
        <ele>45</ele>
        <time>2021-12-10T13:25:51.000Z</time>
      </trkpt>
      <trkpt lat="43.46908" lon="6.62571">
        <ele>44.7</ele>
        <time>2021-12-10T13:26:01.000Z</time>
      </trkpt>
      <trkpt lat="43.4691" lon="6.62584">
        <ele>44.4</ele>
        <time>2021-12-10T13:26:10.000Z</time>
      </trkpt>
      <trkpt lat="43.46913" lon="6.62596">
        <ele>44.4</ele>
        <time>2021-12-10T13:26:19.000Z</time>
      </trkpt>
      <trkpt lat="43.46917" lon="6.62608">
        <ele>43.4</ele>
        <time>2021-12-10T13:26:28.000Z</time>
      </trkpt>
      <trkpt lat="43.46922" lon="6.62618">
        <ele>43</ele>
        <time>2021-12-10T13:26:38.000Z</time>
      </trkpt>
      <trkpt lat="43.46929" lon="6.62628">
        <ele>42.5</ele>
        <time>2021-12-10T13:26:51.000Z</time>
      </trkpt>
      <trkpt lat="43.46933" lon="6.62639">
        <ele>42</ele>
        <time>2021-12-10T13:27:02.000Z</time>
      </trkpt>
      <trkpt lat="43.46935" lon="6.62651">
        <ele>41.9</ele>
        <time>2021-12-10T13:27:13.000Z</time>
      </trkpt>
      <trkpt lat="43.46936" lon="6.62665">
        <ele>41.8</ele>
        <time>2021-12-10T13:27:23.000Z</time>
      </trkpt>
      <trkpt lat="43.46936" lon="6.62677">
        <ele>41</ele>
        <time>2021-12-10T13:27:33.000Z</time>
      </trkpt>
      <trkpt lat="43.46934" lon="6.6269">
        <ele>40.6</ele>
        <time>2021-12-10T13:27:43.000Z</time>
      </trkpt>
      <trkpt lat="43.46936" lon="6.62702">
        <ele>40.3</ele>
        <time>2021-12-10T13:27:54.000Z</time>
      </trkpt>
      <trkpt lat="43.46942" lon="6.62712">
        <ele>39.9</ele>
        <time>2021-12-10T13:28:53.000Z</time>
      </trkpt>
      <trkpt lat="43.46949" lon="6.62703">
        <ele>38.8</ele>
        <time>2021-12-10T13:29:05.000Z</time>
      </trkpt>
      <trkpt lat="43.46952" lon="6.6269">
        <ele>37.6</ele>
        <time>2021-12-10T13:29:16.000Z</time>
      </trkpt>
      <trkpt lat="43.46961" lon="6.62683">
        <ele>35.8</ele>
        <time>2021-12-10T13:29:26.000Z</time>
      </trkpt>
      <trkpt lat="43.46969" lon="6.62679">
        <ele>36.2</ele>
        <time>2021-12-10T13:29:36.000Z</time>
      </trkpt>
      <trkpt lat="43.46978" lon="6.62678">
        <ele>35.9</ele>
        <time>2021-12-10T13:30:21.000Z</time>
      </trkpt>
      <trkpt lat="43.46988" lon="6.62677">
        <ele>36.4</ele>
        <time>2021-12-10T13:30:31.000Z</time>
      </trkpt>
      <trkpt lat="43.46997" lon="6.62675">
        <ele>37.2</ele>
        <time>2021-12-10T13:30:42.000Z</time>
      </trkpt>
      <trkpt lat="43.47006" lon="6.62674">
        <ele>39.2</ele>
        <time>2021-12-10T13:30:55.000Z</time>
      </trkpt>
      <trkpt lat="43.47016" lon="6.62672">
        <ele>40.9</ele>
        <time>2021-12-10T13:31:08.000Z</time>
      </trkpt>
      <trkpt lat="43.47025" lon="6.6267">
        <ele>41.8</ele>
        <time>2021-12-10T13:31:19.000Z</time>
      </trkpt>
      <trkpt lat="43.47034" lon="6.62675">
        <ele>42.7</ele>
        <time>2021-12-10T13:31:31.000Z</time>
      </trkpt>
      <trkpt lat="43.47043" lon="6.62679">
        <ele>42.9</ele>
        <time>2021-12-10T13:31:41.000Z</time>
      </trkpt>
      <trkpt lat="43.47052" lon="6.62681">
        <ele>44</ele>
        <time>2021-12-10T13:31:51.000Z</time>
      </trkpt>
      <trkpt lat="43.47062" lon="6.62682">
        <ele>44.2</ele>
        <time>2021-12-10T13:32:01.000Z</time>
      </trkpt>
      <trkpt lat="43.47071" lon="6.62683">
        <ele>44</ele>
        <time>2021-12-10T13:32:09.000Z</time>
      </trkpt>
      <trkpt lat="43.47081" lon="6.62682">
        <ele>44.1</ele>
        <time>2021-12-10T13:32:20.000Z</time>
      </trkpt>
      <trkpt lat="43.4709" lon="6.6268">
        <ele>44</ele>
        <time>2021-12-10T13:32:29.000Z</time>
      </trkpt>
      <trkpt lat="43.47099" lon="6.62684">
        <ele>43.6</ele>
        <time>2021-12-10T13:32:37.000Z</time>
      </trkpt>
      <trkpt lat="43.47105" lon="6.62694">
        <ele>42.8</ele>
        <time>2021-12-10T13:32:47.000Z</time>
      </trkpt>
      <trkpt lat="43.47113" lon="6.62702">
        <ele>42.9</ele>
        <time>2021-12-10T13:33:13.000Z</time>
      </trkpt>
      <trkpt lat="43.47121" lon="6.62708">
        <ele>42.6</ele>
        <time>2021-12-10T13:33:33.000Z</time>
      </trkpt>
      <trkpt lat="43.4713" lon="6.62713">
        <ele>42.1</ele>
        <time>2021-12-10T13:33:45.000Z</time>
      </trkpt>
      <trkpt lat="43.47139" lon="6.62716">
        <ele>41.3</ele>
        <time>2021-12-10T13:34:00.000Z</time>
      </trkpt>
      <trkpt lat="43.47148" lon="6.6272">
        <ele>42.5</ele>
        <time>2021-12-10T13:34:18.000Z</time>
      </trkpt>
      <trkpt lat="43.47158" lon="6.6272">
        <ele>42.9</ele>
        <time>2021-12-10T13:34:32.000Z</time>
      </trkpt>
      <trkpt lat="43.47167" lon="6.62721">
        <ele>43.6</ele>
        <time>2021-12-10T13:34:43.000Z</time>
      </trkpt>
      <trkpt lat="43.47176" lon="6.62724">
        <ele>43</ele>
        <time>2021-12-10T13:35:01.000Z</time>
      </trkpt>
      <trkpt lat="43.47186" lon="6.62723">
        <ele>42.3</ele>
        <time>2021-12-10T13:35:10.000Z</time>
      </trkpt>
      <trkpt lat="43.47196" lon="6.62726">
        <ele>42.4</ele>
        <time>2021-12-10T13:35:20.000Z</time>
      </trkpt>
      <trkpt lat="43.47206" lon="6.62727">
        <ele>42.5</ele>
        <time>2021-12-10T13:35:29.000Z</time>
      </trkpt>
      <trkpt lat="43.47216" lon="6.62726">
        <ele>43.6</ele>
        <time>2021-12-10T13:35:38.000Z</time>
      </trkpt>
      <trkpt lat="43.47225" lon="6.62722">
        <ele>44.6</ele>
        <time>2021-12-10T13:35:47.000Z</time>
      </trkpt>
      <trkpt lat="43.47234" lon="6.62724">
        <ele>45.5</ele>
        <time>2021-12-10T13:36:11.000Z</time>
      </trkpt>
      <trkpt lat="43.47243" lon="6.62727">
        <ele>45.7</ele>
        <time>2021-12-10T13:36:23.000Z</time>
      </trkpt>
      <trkpt lat="43.47253" lon="6.62728">
        <ele>45.8</ele>
        <time>2021-12-10T13:36:34.000Z</time>
      </trkpt>
      <trkpt lat="43.47261" lon="6.62732">
        <ele>46.4</ele>
        <time>2021-12-10T13:36:49.000Z</time>
      </trkpt>
      <trkpt lat="43.47269" lon="6.62738">
        <ele>47.2</ele>
        <time>2021-12-10T13:37:08.000Z</time>
      </trkpt>
      <trkpt lat="43.47278" lon="6.62743">
        <ele>47.3</ele>
        <time>2021-12-10T13:37:21.000Z</time>
      </trkpt>
      <trkpt lat="43.47287" lon="6.62744">
        <ele>48</ele>
        <time>2021-12-10T13:37:36.000Z</time>
      </trkpt>
      <trkpt lat="43.47296" lon="6.62746">
        <ele>48.9</ele>
        <time>2021-12-10T13:37:47.000Z</time>
      </trkpt>
      <trkpt lat="43.47305" lon="6.62749">
        <ele>49</ele>
        <time>2021-12-10T13:38:00.000Z</time>
      </trkpt>
      <trkpt lat="43.47314" lon="6.62754">
        <ele>49.4</ele>
        <time>2021-12-10T13:38:14.000Z</time>
      </trkpt>
      <trkpt lat="43.47323" lon="6.62758">
        <ele>50.4</ele>
        <time>2021-12-10T13:38:25.000Z</time>
      </trkpt>
      <trkpt lat="43.47331" lon="6.62762">
        <ele>50.5</ele>
        <time>2021-12-10T13:38:36.000Z</time>
      </trkpt>
      <trkpt lat="43.4734" lon="6.62761">
        <ele>51.2</ele>
        <time>2021-12-10T13:38:47.000Z</time>
      </trkpt>
      <trkpt lat="43.4735" lon="6.62762">
        <ele>51.8</ele>
        <time>2021-12-10T13:39:00.000Z</time>
      </trkpt>
      <trkpt lat="43.4736" lon="6.62763">
        <ele>52.4</ele>
        <time>2021-12-10T13:39:10.000Z</time>
      </trkpt>
      <trkpt lat="43.47369" lon="6.62764">
        <ele>52.6</ele>
        <time>2021-12-10T13:39:19.000Z</time>
      </trkpt>
      <trkpt lat="43.47379" lon="6.62765">
        <ele>52.4</ele>
        <time>2021-12-10T13:39:29.000Z</time>
      </trkpt>
      <trkpt lat="43.47389" lon="6.62764">
        <ele>51.9</ele>
        <time>2021-12-10T13:39:38.000Z</time>
      </trkpt>
      <trkpt lat="43.47398" lon="6.62762">
        <ele>50.9</ele>
        <time>2021-12-10T13:40:54.000Z</time>
      </trkpt>
      <trkpt lat="43.47408" lon="6.62761">
        <ele>51.6</ele>
        <time>2021-12-10T13:41:14.000Z</time>
      </trkpt>
      <trkpt lat="43.47416" lon="6.62757">
        <ele>51.7</ele>
        <time>2021-12-10T13:41:23.000Z</time>
      </trkpt>
      <trkpt lat="43.47425" lon="6.62752">
        <ele>51.6</ele>
        <time>2021-12-10T13:41:31.000Z</time>
      </trkpt>
      <trkpt lat="43.47433" lon="6.62748">
        <ele>51.2</ele>
        <time>2021-12-10T13:41:41.000Z</time>
      </trkpt>
      <trkpt lat="43.47443" lon="6.62742">
        <ele>51.5</ele>
        <time>2021-12-10T13:41:51.000Z</time>
      </trkpt>
      <trkpt lat="43.47451" lon="6.62737">
        <ele>50.5</ele>
        <time>2021-12-10T13:42:00.000Z</time>
      </trkpt>
      <trkpt lat="43.4746" lon="6.6273">
        <ele>49.6</ele>
        <time>2021-12-10T13:42:09.000Z</time>
      </trkpt>
      <trkpt lat="43.47468" lon="6.62725">
        <ele>49.5</ele>
        <time>2021-12-10T13:42:18.000Z</time>
      </trkpt>
      <trkpt lat="43.47476" lon="6.6272">
        <ele>49.8</ele>
        <time>2021-12-10T13:42:27.000Z</time>
      </trkpt>
      <trkpt lat="43.47484" lon="6.62713">
        <ele>49.8</ele>
        <time>2021-12-10T13:42:35.000Z</time>
      </trkpt>
      <trkpt lat="43.47492" lon="6.62707">
        <ele>49.7</ele>
        <time>2021-12-10T13:42:44.000Z</time>
      </trkpt>
      <trkpt lat="43.475" lon="6.627">
        <ele>50</ele>
        <time>2021-12-10T13:42:53.000Z</time>
      </trkpt>
      <trkpt lat="43.47507" lon="6.62692">
        <ele>49.8</ele>
        <time>2021-12-10T13:43:02.000Z</time>
      </trkpt>
      <trkpt lat="43.47513" lon="6.62682">
        <ele>50.1</ele>
        <time>2021-12-10T13:43:10.000Z</time>
      </trkpt>
      <trkpt lat="43.47521" lon="6.62676">
        <ele>50.1</ele>
        <time>2021-12-10T13:43:17.000Z</time>
      </trkpt>
      <trkpt lat="43.47531" lon="6.62675">
        <ele>49.9</ele>
        <time>2021-12-10T13:43:27.000Z</time>
      </trkpt>
      <trkpt lat="43.47539" lon="6.6268">
        <ele>50.6</ele>
        <time>2021-12-10T13:43:37.000Z</time>
      </trkpt>
      <trkpt lat="43.47549" lon="6.62679">
        <ele>51</ele>
        <time>2021-12-10T13:43:47.000Z</time>
      </trkpt>
      <trkpt lat="43.47556" lon="6.62671">
        <ele>51.7</ele>
        <time>2021-12-10T13:43:56.000Z</time>
      </trkpt>
      <trkpt lat="43.47561" lon="6.62659">
        <ele>51.9</ele>
        <time>2021-12-10T13:44:06.000Z</time>
      </trkpt>
      <trkpt lat="43.47565" lon="6.62647">
        <ele>52.7</ele>
        <time>2021-12-10T13:44:15.000Z</time>
      </trkpt>
      <trkpt lat="43.47568" lon="6.62635">
        <ele>53.5</ele>
        <time>2021-12-10T13:44:24.000Z</time>
      </trkpt>
      <trkpt lat="43.47569" lon="6.62622">
        <ele>53.7</ele>
        <time>2021-12-10T13:44:33.000Z</time>
      </trkpt>
      <trkpt lat="43.47571" lon="6.6261">
        <ele>53.9</ele>
        <time>2021-12-10T13:44:42.000Z</time>
      </trkpt>
      <trkpt lat="43.47574" lon="6.62598">
        <ele>53.8</ele>
        <time>2021-12-10T13:44:51.000Z</time>
      </trkpt>
      <trkpt lat="43.47578" lon="6.62587">
        <ele>54.2</ele>
        <time>2021-12-10T13:44:59.000Z</time>
      </trkpt>
      <trkpt lat="43.47581" lon="6.62573">
        <ele>54.4</ele>
        <time>2021-12-10T13:45:08.000Z</time>
      </trkpt>
      <trkpt lat="43.47584" lon="6.62562">
        <ele>54.9</ele>
        <time>2021-12-10T13:45:17.000Z</time>
      </trkpt>
      <trkpt lat="43.47586" lon="6.62549">
        <ele>55.8</ele>
        <time>2021-12-10T13:45:26.000Z</time>
      </trkpt>
      <trkpt lat="43.47594" lon="6.6254">
        <ele>55.5</ele>
        <time>2021-12-10T13:45:36.000Z</time>
      </trkpt>
      <trkpt lat="43.47603" lon="6.62541">
        <ele>54.8</ele>
        <time>2021-12-10T13:45:48.000Z</time>
      </trkpt>
      <trkpt lat="43.47607" lon="6.62552">
        <ele>55.1</ele>
        <time>2021-12-10T13:45:57.000Z</time>
      </trkpt>
      <trkpt lat="43.47614" lon="6.62562">
        <ele>55.4</ele>
        <time>2021-12-10T13:46:06.000Z</time>
      </trkpt>
      <trkpt lat="43.4762" lon="6.62572">
        <ele>54.6</ele>
        <time>2021-12-10T13:46:16.000Z</time>
      </trkpt>
      <trkpt lat="43.47626" lon="6.62583">
        <ele>55.5</ele>
        <time>2021-12-10T13:46:25.000Z</time>
      </trkpt>
      <trkpt lat="43.47631" lon="6.62593">
        <ele>55</ele>
        <time>2021-12-10T13:46:34.000Z</time>
      </trkpt>
      <trkpt lat="43.47638" lon="6.62601">
        <ele>55.4</ele>
        <time>2021-12-10T13:46:44.000Z</time>
      </trkpt>
      <trkpt lat="43.47647" lon="6.62608">
        <ele>55.2</ele>
        <time>2021-12-10T13:46:53.000Z</time>
      </trkpt>
      <trkpt lat="43.47656" lon="6.62613">
        <ele>54.6</ele>
        <time>2021-12-10T13:47:02.000Z</time>
      </trkpt>
      <trkpt lat="43.47664" lon="6.6262">
        <ele>53.8</ele>
        <time>2021-12-10T13:47:11.000Z</time>
      </trkpt>
      <trkpt lat="43.47673" lon="6.62625">
        <ele>54.4</ele>
        <time>2021-12-10T13:47:20.000Z</time>
      </trkpt>
      <trkpt lat="43.47683" lon="6.62628">
        <ele>54.8</ele>
        <time>2021-12-10T13:47:28.000Z</time>
      </trkpt>
      <trkpt lat="43.47693" lon="6.62629">
        <ele>54.7</ele>
        <time>2021-12-10T13:47:36.000Z</time>
      </trkpt>
      <trkpt lat="43.47702" lon="6.6263">
        <ele>55.1</ele>
        <time>2021-12-10T13:47:45.000Z</time>
      </trkpt>
      <trkpt lat="43.47712" lon="6.62629">
        <ele>55.2</ele>
        <time>2021-12-10T13:47:54.000Z</time>
      </trkpt>
      <trkpt lat="43.47721" lon="6.62626">
        <ele>55.1</ele>
        <time>2021-12-10T13:48:04.000Z</time>
      </trkpt>
      <trkpt lat="43.4773" lon="6.62622">
        <ele>55</ele>
        <time>2021-12-10T13:48:12.000Z</time>
      </trkpt>
      <trkpt lat="43.47739" lon="6.62619">
        <ele>55</ele>
        <time>2021-12-10T13:48:22.000Z</time>
      </trkpt>
      <trkpt lat="43.47748" lon="6.62613">
        <ele>54.2</ele>
        <time>2021-12-10T13:48:31.000Z</time>
      </trkpt>
      <trkpt lat="43.47756" lon="6.62605">
        <ele>53.5</ele>
        <time>2021-12-10T13:48:40.000Z</time>
      </trkpt>
      <trkpt lat="43.47765" lon="6.62602">
        <ele>53</ele>
        <time>2021-12-10T13:48:49.000Z</time>
      </trkpt>
      <trkpt lat="43.47774" lon="6.62604">
        <ele>53.7</ele>
        <time>2021-12-10T13:49:00.000Z</time>
      </trkpt>
      <trkpt lat="43.47783" lon="6.62604">
        <ele>54.5</ele>
        <time>2021-12-10T13:49:09.000Z</time>
      </trkpt>
      <trkpt lat="43.47792" lon="6.62602">
        <ele>53.9</ele>
        <time>2021-12-10T13:49:17.000Z</time>
      </trkpt>
      <trkpt lat="43.47801" lon="6.626">
        <ele>54.6</ele>
        <time>2021-12-10T13:52:25.000Z</time>
      </trkpt>
      <trkpt lat="43.47811" lon="6.62602">
        <ele>54.7</ele>
        <time>2021-12-10T13:52:39.000Z</time>
      </trkpt>
      <trkpt lat="43.47819" lon="6.62606">
        <ele>54.8</ele>
        <time>2021-12-10T13:52:47.000Z</time>
      </trkpt>
      <trkpt lat="43.47829" lon="6.62608">
        <ele>55.5</ele>
        <time>2021-12-10T13:52:58.000Z</time>
      </trkpt>
      <trkpt lat="43.47839" lon="6.62609">
        <ele>55</ele>
        <time>2021-12-10T13:53:07.000Z</time>
      </trkpt>
      <trkpt lat="43.47848" lon="6.62609">
        <ele>54.6</ele>
        <time>2021-12-10T13:53:15.000Z</time>
      </trkpt>
      <trkpt lat="43.47857" lon="6.62609">
        <ele>55</ele>
        <time>2021-12-10T13:53:27.000Z</time>
      </trkpt>
      <trkpt lat="43.47867" lon="6.62607">
        <ele>55.9</ele>
        <time>2021-12-10T13:53:35.000Z</time>
      </trkpt>
      <trkpt lat="43.47876" lon="6.62608">
        <ele>56.8</ele>
        <time>2021-12-10T13:53:43.000Z</time>
      </trkpt>
      <trkpt lat="43.47886" lon="6.62608">
        <ele>58</ele>
        <time>2021-12-10T13:53:52.000Z</time>
      </trkpt>
      <trkpt lat="43.47895" lon="6.62606">
        <ele>58.7</ele>
        <time>2021-12-10T13:54:02.000Z</time>
      </trkpt>
      <trkpt lat="43.47904" lon="6.62603">
        <ele>59.6</ele>
        <time>2021-12-10T13:54:09.000Z</time>
      </trkpt>
      <trkpt lat="43.47913" lon="6.62596">
        <ele>59.8</ele>
        <time>2021-12-10T13:54:17.000Z</time>
      </trkpt>
      <trkpt lat="43.47921" lon="6.62588">
        <ele>60</ele>
        <time>2021-12-10T13:54:24.000Z</time>
      </trkpt>
      <trkpt lat="43.47927" lon="6.62577">
        <ele>60</ele>
        <time>2021-12-10T13:54:31.000Z</time>
      </trkpt>
      <trkpt lat="43.47931" lon="6.62566">
        <ele>61.1</ele>
        <time>2021-12-10T13:54:50.000Z</time>
      </trkpt>
      <trkpt lat="43.47932" lon="6.62553">
        <ele>61.4</ele>
        <time>2021-12-10T13:55:17.000Z</time>
      </trkpt>
      <trkpt lat="43.47933" lon="6.6254">
        <ele>63.7</ele>
        <time>2021-12-10T13:55:31.000Z</time>
      </trkpt>
      <trkpt lat="43.47935" lon="6.62527">
        <ele>65.4</ele>
        <time>2021-12-10T13:55:41.000Z</time>
      </trkpt>
      <trkpt lat="43.47933" lon="6.62514">
        <ele>67.3</ele>
        <time>2021-12-10T13:55:50.000Z</time>
      </trkpt>
      <trkpt lat="43.47934" lon="6.62501">
        <ele>69.3</ele>
        <time>2021-12-10T13:55:59.000Z</time>
      </trkpt>
      <trkpt lat="43.47937" lon="6.62488">
        <ele>70</ele>
        <time>2021-12-10T13:56:09.000Z</time>
      </trkpt>
      <trkpt lat="43.47939" lon="6.62475">
        <ele>70.7</ele>
        <time>2021-12-10T13:56:18.000Z</time>
      </trkpt>
      <trkpt lat="43.47938" lon="6.62462">
        <ele>71.5</ele>
        <time>2021-12-10T13:56:29.000Z</time>
      </trkpt>
      <trkpt lat="43.4794" lon="6.6245">
        <ele>72</ele>
        <time>2021-12-10T13:56:39.000Z</time>
      </trkpt>
      <trkpt lat="43.47946" lon="6.62438">
        <ele>74.3</ele>
        <time>2021-12-10T13:57:00.000Z</time>
      </trkpt>
      <trkpt lat="43.4795" lon="6.62426">
        <ele>74.9</ele>
        <time>2021-12-10T13:57:11.000Z</time>
      </trkpt>
      <trkpt lat="43.47958" lon="6.6242">
        <ele>74.1</ele>
        <time>2021-12-10T14:00:02.000Z</time>
      </trkpt>
      <trkpt lat="43.47968" lon="6.62419">
        <ele>74.4</ele>
        <time>2021-12-10T14:00:13.000Z</time>
      </trkpt>
      <trkpt lat="43.47977" lon="6.6242">
        <ele>74.4</ele>
        <time>2021-12-10T14:00:22.000Z</time>
      </trkpt>
      <trkpt lat="43.47987" lon="6.62417">
        <ele>74.8</ele>
        <time>2021-12-10T14:00:32.000Z</time>
      </trkpt>
      <trkpt lat="43.47996" lon="6.62416">
        <ele>74.7</ele>
        <time>2021-12-10T14:00:40.000Z</time>
      </trkpt>
      <trkpt lat="43.48006" lon="6.62413">
        <ele>74.3</ele>
        <time>2021-12-10T14:00:49.000Z</time>
      </trkpt>
      <trkpt lat="43.48015" lon="6.62413">
        <ele>74.3</ele>
        <time>2021-12-10T14:00:58.000Z</time>
      </trkpt>
      <trkpt lat="43.48025" lon="6.62412">
        <ele>73.7</ele>
        <time>2021-12-10T14:01:08.000Z</time>
      </trkpt>
      <trkpt lat="43.48034" lon="6.62409">
        <ele>73.3</ele>
        <time>2021-12-10T14:01:17.000Z</time>
      </trkpt>
      <trkpt lat="43.48043" lon="6.62404">
        <ele>73</ele>
        <time>2021-12-10T14:01:25.000Z</time>
      </trkpt>
      <trkpt lat="43.48053" lon="6.62404">
        <ele>72.2</ele>
        <time>2021-12-10T14:01:35.000Z</time>
      </trkpt>
      <trkpt lat="43.48062" lon="6.62402">
        <ele>72.1</ele>
        <time>2021-12-10T14:01:44.000Z</time>
      </trkpt>
      <trkpt lat="43.48072" lon="6.62404">
        <ele>71.7</ele>
        <time>2021-12-10T14:01:53.000Z</time>
      </trkpt>
      <trkpt lat="43.48081" lon="6.62406">
        <ele>72.1</ele>
        <time>2021-12-10T14:02:01.000Z</time>
      </trkpt>
      <trkpt lat="43.4809" lon="6.62409">
        <ele>72.2</ele>
        <time>2021-12-10T14:02:10.000Z</time>
      </trkpt>
      <trkpt lat="43.48099" lon="6.6241">
        <ele>71.9</ele>
        <time>2021-12-10T14:02:20.000Z</time>
      </trkpt>
      <trkpt lat="43.48108" lon="6.62413">
        <ele>72.2</ele>
        <time>2021-12-10T14:02:29.000Z</time>
      </trkpt>
      <trkpt lat="43.48117" lon="6.62415">
        <ele>72.1</ele>
        <time>2021-12-10T14:02:38.000Z</time>
      </trkpt>
      <trkpt lat="43.48127" lon="6.62416">
        <ele>71.7</ele>
        <time>2021-12-10T14:02:48.000Z</time>
      </trkpt>
      <trkpt lat="43.48137" lon="6.6242">
        <ele>71.8</ele>
        <time>2021-12-10T14:02:58.000Z</time>
      </trkpt>
      <trkpt lat="43.48146" lon="6.62421">
        <ele>71.3</ele>
        <time>2021-12-10T14:03:08.000Z</time>
      </trkpt>
      <trkpt lat="43.48155" lon="6.6242">
        <ele>69.9</ele>
        <time>2021-12-10T14:03:19.000Z</time>
      </trkpt>
      <trkpt lat="43.48165" lon="6.62419">
        <ele>68.9</ele>
        <time>2021-12-10T14:03:29.000Z</time>
      </trkpt>
      <trkpt lat="43.48174" lon="6.62422">
        <ele>68.7</ele>
        <time>2021-12-10T14:03:37.000Z</time>
      </trkpt>
      <trkpt lat="43.48183" lon="6.62426">
        <ele>68.8</ele>
        <time>2021-12-10T14:03:47.000Z</time>
      </trkpt>
      <trkpt lat="43.48189" lon="6.62436">
        <ele>67.4</ele>
        <time>2021-12-10T14:05:08.000Z</time>
      </trkpt>
      <trkpt lat="43.48198" lon="6.62439">
        <ele>65.7</ele>
        <time>2021-12-10T14:05:29.000Z</time>
      </trkpt>
      <trkpt lat="43.48207" lon="6.62439">
        <ele>63.6</ele>
        <time>2021-12-10T14:05:44.000Z</time>
      </trkpt>
      <trkpt lat="43.48216" lon="6.62441">
        <ele>62.1</ele>
        <time>2021-12-10T14:05:56.000Z</time>
      </trkpt>
      <trkpt lat="43.48226" lon="6.62442">
        <ele>60.7</ele>
        <time>2021-12-10T14:06:06.000Z</time>
      </trkpt>
      <trkpt lat="43.48235" lon="6.62442">
        <ele>59.4</ele>
        <time>2021-12-10T14:06:16.000Z</time>
      </trkpt>
      <trkpt lat="43.48243" lon="6.62437">
        <ele>57.6</ele>
        <time>2021-12-10T14:06:52.000Z</time>
      </trkpt>
      <trkpt lat="43.48248" lon="6.62426">
        <ele>58.1</ele>
        <time>2021-12-10T14:08:12.000Z</time>
      </trkpt>
      <trkpt lat="43.48248" lon="6.62413">
        <ele>57.2</ele>
        <time>2021-12-10T14:08:21.000Z</time>
      </trkpt>
      <trkpt lat="43.48249" lon="6.62399">
        <ele>56.9</ele>
        <time>2021-12-10T14:08:31.000Z</time>
      </trkpt>
      <trkpt lat="43.48249" lon="6.62386">
        <ele>56.4</ele>
        <time>2021-12-10T14:08:39.000Z</time>
      </trkpt>
      <trkpt lat="43.48249" lon="6.62373">
        <ele>56.1</ele>
        <time>2021-12-10T14:08:47.000Z</time>
      </trkpt>
      <trkpt lat="43.48248" lon="6.62361">
        <ele>56.4</ele>
        <time>2021-12-10T14:08:54.000Z</time>
      </trkpt>
      <trkpt lat="43.48247" lon="6.62347">
        <ele>56</ele>
        <time>2021-12-10T14:09:02.000Z</time>
      </trkpt>
      <trkpt lat="43.48247" lon="6.62334">
        <ele>54.3</ele>
        <time>2021-12-10T14:09:10.000Z</time>
      </trkpt>
      <trkpt lat="43.48246" lon="6.62321">
        <ele>53.4</ele>
        <time>2021-12-10T14:09:18.000Z</time>
      </trkpt>
      <trkpt lat="43.48245" lon="6.62307">
        <ele>53.3</ele>
        <time>2021-12-10T14:09:26.000Z</time>
      </trkpt>
      <trkpt lat="43.48244" lon="6.62295">
        <ele>52.5</ele>
        <time>2021-12-10T14:09:34.000Z</time>
      </trkpt>
      <trkpt lat="43.48242" lon="6.62282">
        <ele>51.7</ele>
        <time>2021-12-10T14:09:42.000Z</time>
      </trkpt>
      <trkpt lat="43.48243" lon="6.6227">
        <ele>51</ele>
        <time>2021-12-10T14:09:50.000Z</time>
      </trkpt>
      <trkpt lat="43.48252" lon="6.62265">
        <ele>50.5</ele>
        <time>2021-12-10T14:10:00.000Z</time>
      </trkpt>
      <trkpt lat="43.48261" lon="6.62268">
        <ele>50.7</ele>
        <time>2021-12-10T14:10:11.000Z</time>
      </trkpt>
      <trkpt lat="43.4827" lon="6.62274">
        <ele>51.2</ele>
        <time>2021-12-10T14:10:20.000Z</time>
      </trkpt>
      <trkpt lat="43.48274" lon="6.62286">
        <ele>51.7</ele>
        <time>2021-12-10T14:10:29.000Z</time>
      </trkpt>
      <trkpt lat="43.48279" lon="6.62297">
        <ele>51.1</ele>
        <time>2021-12-10T14:10:37.000Z</time>
      </trkpt>
      <trkpt lat="43.48282" lon="6.6231">
        <ele>50.4</ele>
        <time>2021-12-10T14:10:45.000Z</time>
      </trkpt>
      <trkpt lat="43.48286" lon="6.62321">
        <ele>49.7</ele>
        <time>2021-12-10T14:10:53.000Z</time>
      </trkpt>
      <trkpt lat="43.48289" lon="6.62334">
        <ele>48.8</ele>
        <time>2021-12-10T14:11:01.000Z</time>
      </trkpt>
      <trkpt lat="43.48293" lon="6.62346">
        <ele>48.5</ele>
        <time>2021-12-10T14:11:10.000Z</time>
      </trkpt>
      <trkpt lat="43.48298" lon="6.62359">
        <ele>48.5</ele>
        <time>2021-12-10T14:11:19.000Z</time>
      </trkpt>
      <trkpt lat="43.48301" lon="6.6237">
        <ele>47.9</ele>
        <time>2021-12-10T14:11:27.000Z</time>
      </trkpt>
      <trkpt lat="43.48304" lon="6.62383">
        <ele>46.7</ele>
        <time>2021-12-10T14:11:35.000Z</time>
      </trkpt>
      <trkpt lat="43.48308" lon="6.62395">
        <ele>45.8</ele>
        <time>2021-12-10T14:11:43.000Z</time>
      </trkpt>
      <trkpt lat="43.48312" lon="6.62407">
        <ele>45</ele>
        <time>2021-12-10T14:11:51.000Z</time>
      </trkpt>
      <trkpt lat="43.48314" lon="6.62419">
        <ele>45</ele>
        <time>2021-12-10T14:11:58.000Z</time>
      </trkpt>
      <trkpt lat="43.48317" lon="6.62432">
        <ele>44.5</ele>
        <time>2021-12-10T14:12:05.000Z</time>
      </trkpt>
      <trkpt lat="43.48321" lon="6.62443">
        <ele>44.3</ele>
        <time>2021-12-10T14:12:27.000Z</time>
      </trkpt>
      <trkpt lat="43.48324" lon="6.62456">
        <ele>43.9</ele>
        <time>2021-12-10T14:12:37.000Z</time>
      </trkpt>
      <trkpt lat="43.48329" lon="6.62467">
        <ele>43.5</ele>
        <time>2021-12-10T14:12:44.000Z</time>
      </trkpt>
      <trkpt lat="43.48337" lon="6.62475">
        <ele>42.3</ele>
        <time>2021-12-10T14:12:50.000Z</time>
      </trkpt>
      <trkpt lat="43.48345" lon="6.62483">
        <ele>41.1</ele>
        <time>2021-12-10T14:12:55.000Z</time>
      </trkpt>
      <trkpt lat="43.48353" lon="6.62489">
        <ele>40.1</ele>
        <time>2021-12-10T14:13:01.000Z</time>
      </trkpt>
      <trkpt lat="43.48356" lon="6.62503">
        <ele>39.1</ele>
        <time>2021-12-10T14:13:10.000Z</time>
      </trkpt>
      <trkpt lat="43.48357" lon="6.62515">
        <ele>36.8</ele>
        <time>2021-12-10T14:13:16.000Z</time>
      </trkpt>
      <trkpt lat="43.4836" lon="6.62529">
        <ele>35.2</ele>
        <time>2021-12-10T14:13:22.000Z</time>
      </trkpt>
      <trkpt lat="43.48366" lon="6.6254">
        <ele>32.8</ele>
        <time>2021-12-10T14:13:30.000Z</time>
      </trkpt>
      <trkpt lat="43.48365" lon="6.62555">
        <ele>30.9</ele>
        <time>2021-12-10T14:13:38.000Z</time>
      </trkpt>
      <trkpt lat="43.48369" lon="6.62566">
        <ele>29.7</ele>
        <time>2021-12-10T14:13:44.000Z</time>
      </trkpt>
      <trkpt lat="43.48371" lon="6.6258">
        <ele>28.8</ele>
        <time>2021-12-10T14:13:51.000Z</time>
      </trkpt>
      <trkpt lat="43.48373" lon="6.62593">
        <ele>27.8</ele>
        <time>2021-12-10T14:13:57.000Z</time>
      </trkpt>
      <trkpt lat="43.48377" lon="6.62605">
        <ele>26.8</ele>
        <time>2021-12-10T14:14:03.000Z</time>
      </trkpt>
      <trkpt lat="43.48381" lon="6.62617">
        <ele>26.7</ele>
        <time>2021-12-10T14:14:09.000Z</time>
      </trkpt>
      <trkpt lat="43.48387" lon="6.62628">
        <ele>25.6</ele>
        <time>2021-12-10T14:14:16.000Z</time>
      </trkpt>
      <trkpt lat="43.48389" lon="6.6264">
        <ele>25.1</ele>
        <time>2021-12-10T14:14:22.000Z</time>
      </trkpt>
      <trkpt lat="43.48395" lon="6.6265">
        <ele>25.2</ele>
        <time>2021-12-10T14:14:27.000Z</time>
      </trkpt>
      <trkpt lat="43.48405" lon="6.62654">
        <ele>25.5</ele>
        <time>2021-12-10T14:14:34.000Z</time>
      </trkpt>
      <trkpt lat="43.48414" lon="6.62658">
        <ele>24.5</ele>
        <time>2021-12-10T14:14:41.000Z</time>
      </trkpt>
      <trkpt lat="43.48424" lon="6.62658">
        <ele>22.9</ele>
        <time>2021-12-10T14:14:50.000Z</time>
      </trkpt>
      <trkpt lat="43.48434" lon="6.6266">
        <ele>21.7</ele>
        <time>2021-12-10T14:15:01.000Z</time>
      </trkpt>
      <trkpt lat="43.48443" lon="6.62664">
        <ele>21.3</ele>
        <time>2021-12-10T14:15:14.000Z</time>
      </trkpt>
      <trkpt lat="43.48452" lon="6.62668">
        <ele>21.5</ele>
        <time>2021-12-10T14:15:25.000Z</time>
      </trkpt>
      <trkpt lat="43.48446" lon="6.62679">
        <ele>20.7</ele>
        <time>2021-12-10T14:16:29.000Z</time>
      </trkpt>
      <trkpt lat="43.48437" lon="6.62682">
        <ele>21.3</ele>
        <time>2021-12-10T14:17:05.000Z</time>
      </trkpt>
      <trkpt lat="43.48438" lon="6.62669">
        <ele>18.8</ele>
        <time>2021-12-10T14:20:49.000Z</time>
      </trkpt>
      <trkpt lat="43.48447" lon="6.62664">
        <ele>18.3</ele>
        <time>2021-12-10T14:21:00.000Z</time>
      </trkpt>
      <trkpt lat="43.48454" lon="6.62672">
        <ele>17.2</ele>
        <time>2021-12-10T14:21:53.000Z</time>
      </trkpt>
      <trkpt lat="43.48452" lon="6.62659">
        <ele>18</ele>
        <time>2021-12-10T14:23:07.000Z</time>
      </trkpt>
      <trkpt lat="43.48452" lon="6.62647">
        <ele>17.2</ele>
        <time>2021-12-10T14:23:30.000Z</time>
      </trkpt>
      <trkpt lat="43.48447" lon="6.62657">
        <ele>17</ele>
        <time>2021-12-10T14:26:27.000Z</time>
      </trkpt>
      <trkpt lat="43.4844" lon="6.62665">
        <ele>16.8</ele>
        <time>2021-12-10T14:26:54.000Z</time>
      </trkpt>
      <trkpt lat="43.48436" lon="6.62676">
        <ele>16.8</ele>
        <time>2021-12-10T14:27:05.000Z</time>
      </trkpt>
      <trkpt lat="43.48443" lon="6.62685">
        <ele>17.3</ele>
        <time>2021-12-10T14:27:27.000Z</time>
      </trkpt>
      <trkpt lat="43.48452" lon="6.6269">
        <ele>17.6</ele>
        <time>2021-12-10T14:27:40.000Z</time>
      </trkpt>
      <trkpt lat="43.48461" lon="6.62695">
        <ele>17.4</ele>
        <time>2021-12-10T14:27:52.000Z</time>
      </trkpt>
      <trkpt lat="43.4847" lon="6.627">
        <ele>17.4</ele>
        <time>2021-12-10T14:28:01.000Z</time>
      </trkpt>
      <trkpt lat="43.4848" lon="6.62703">
        <ele>17.3</ele>
        <time>2021-12-10T14:28:08.000Z</time>
      </trkpt>
      <trkpt lat="43.48489" lon="6.62705">
        <ele>17.6</ele>
        <time>2021-12-10T14:28:18.000Z</time>
      </trkpt>
      <trkpt lat="43.48499" lon="6.627">
        <ele>17.5</ele>
        <time>2021-12-10T14:28:25.000Z</time>
      </trkpt>
      <trkpt lat="43.48507" lon="6.62694">
        <ele>17.6</ele>
        <time>2021-12-10T14:28:33.000Z</time>
      </trkpt>
      <trkpt lat="43.48515" lon="6.62688">
        <ele>18</ele>
        <time>2021-12-10T14:28:41.000Z</time>
      </trkpt>
      <trkpt lat="43.48524" lon="6.62685">
        <ele>18.6</ele>
        <time>2021-12-10T14:28:50.000Z</time>
      </trkpt>
      <trkpt lat="43.48533" lon="6.62679">
        <ele>18.8</ele>
        <time>2021-12-10T14:28:59.000Z</time>
      </trkpt>
      <trkpt lat="43.48538" lon="6.62668">
        <ele>19.1</ele>
        <time>2021-12-10T14:29:08.000Z</time>
      </trkpt>
      <trkpt lat="43.4854" lon="6.62656">
        <ele>18.9</ele>
        <time>2021-12-10T14:29:17.000Z</time>
      </trkpt>
      <trkpt lat="43.48542" lon="6.62643">
        <ele>18.8</ele>
        <time>2021-12-10T14:29:26.000Z</time>
      </trkpt>
      <trkpt lat="43.48543" lon="6.6263">
        <ele>18.9</ele>
        <time>2021-12-10T14:29:34.000Z</time>
      </trkpt>
      <trkpt lat="43.48545" lon="6.62618">
        <ele>19.1</ele>
        <time>2021-12-10T14:29:42.000Z</time>
      </trkpt>
      <trkpt lat="43.48553" lon="6.62612">
        <ele>19.3</ele>
        <time>2021-12-10T14:29:52.000Z</time>
      </trkpt>
      <trkpt lat="43.48563" lon="6.62612">
        <ele>19.6</ele>
        <time>2021-12-10T14:30:03.000Z</time>
      </trkpt>
      <trkpt lat="43.48573" lon="6.62613">
        <ele>19.3</ele>
        <time>2021-12-10T14:30:12.000Z</time>
      </trkpt>
      <trkpt lat="43.48582" lon="6.62613">
        <ele>18.8</ele>
        <time>2021-12-10T14:30:21.000Z</time>
      </trkpt>
      <trkpt lat="43.48592" lon="6.62615">
        <ele>18.4</ele>
        <time>2021-12-10T14:30:30.000Z</time>
      </trkpt>
      <trkpt lat="43.48601" lon="6.62614">
        <ele>18.5</ele>
        <time>2021-12-10T14:30:36.000Z</time>
      </trkpt>
      <trkpt lat="43.48609" lon="6.62609">
        <ele>19.2</ele>
        <time>2021-12-10T14:30:47.000Z</time>
      </trkpt>
      <trkpt lat="43.48617" lon="6.62601">
        <ele>19.4</ele>
        <time>2021-12-10T14:30:54.000Z</time>
      </trkpt>
      <trkpt lat="43.48626" lon="6.62596">
        <ele>19.3</ele>
        <time>2021-12-10T14:31:03.000Z</time>
      </trkpt>
      <trkpt lat="43.48635" lon="6.62592">
        <ele>19.4</ele>
        <time>2021-12-10T14:31:11.000Z</time>
      </trkpt>
      <trkpt lat="43.48644" lon="6.62593">
        <ele>19.5</ele>
        <time>2021-12-10T14:31:20.000Z</time>
      </trkpt>
      <trkpt lat="43.48653" lon="6.62588">
        <ele>19.6</ele>
        <time>2021-12-10T14:31:28.000Z</time>
      </trkpt>
      <trkpt lat="43.48662" lon="6.62583">
        <ele>19.9</ele>
        <time>2021-12-10T14:31:37.000Z</time>
      </trkpt>
      <trkpt lat="43.48671" lon="6.62579">
        <ele>19.7</ele>
        <time>2021-12-10T14:31:48.000Z</time>
      </trkpt>
      <trkpt lat="43.4868" lon="6.62575">
        <ele>19.3</ele>
        <time>2021-12-10T14:31:57.000Z</time>
      </trkpt>
      <trkpt lat="43.4869" lon="6.62573">
        <ele>19.8</ele>
        <time>2021-12-10T14:32:05.000Z</time>
      </trkpt>
      <trkpt lat="43.48699" lon="6.62573">
        <ele>19.7</ele>
        <time>2021-12-10T14:32:14.000Z</time>
      </trkpt>
      <trkpt lat="43.48708" lon="6.62571">
        <ele>20</ele>
        <time>2021-12-10T14:32:23.000Z</time>
      </trkpt>
      <trkpt lat="43.48717" lon="6.62568">
        <ele>20.4</ele>
        <time>2021-12-10T14:32:31.000Z</time>
      </trkpt>
      <trkpt lat="43.48725" lon="6.6256">
        <ele>20.5</ele>
        <time>2021-12-10T14:32:40.000Z</time>
      </trkpt>
      <trkpt lat="43.48732" lon="6.62552">
        <ele>20.8</ele>
        <time>2021-12-10T14:32:49.000Z</time>
      </trkpt>
      <trkpt lat="43.4874" lon="6.62544">
        <ele>20.7</ele>
        <time>2021-12-10T14:32:57.000Z</time>
      </trkpt>
      <trkpt lat="43.48747" lon="6.62535">
        <ele>20.5</ele>
        <time>2021-12-10T14:33:05.000Z</time>
      </trkpt>
      <trkpt lat="43.48756" lon="6.62531">
        <ele>21</ele>
        <time>2021-12-10T14:33:12.000Z</time>
      </trkpt>
      <trkpt lat="43.48766" lon="6.62532">
        <ele>21.2</ele>
        <time>2021-12-10T14:33:20.000Z</time>
      </trkpt>
      <trkpt lat="43.48775" lon="6.62535">
        <ele>21.6</ele>
        <time>2021-12-10T14:33:29.000Z</time>
      </trkpt>
      <trkpt lat="43.48782" lon="6.62526">
        <ele>22.4</ele>
        <time>2021-12-10T14:33:41.000Z</time>
      </trkpt>
      <trkpt lat="43.48788" lon="6.62516">
        <ele>22.6</ele>
        <time>2021-12-10T14:33:50.000Z</time>
      </trkpt>
      <trkpt lat="43.48796" lon="6.62509">
        <ele>23.2</ele>
        <time>2021-12-10T14:33:59.000Z</time>
      </trkpt>
      <trkpt lat="43.48805" lon="6.62504">
        <ele>23.2</ele>
        <time>2021-12-10T14:34:08.000Z</time>
      </trkpt>
      <trkpt lat="43.48812" lon="6.62495">
        <ele>23.1</ele>
        <time>2021-12-10T14:34:17.000Z</time>
      </trkpt>
      <trkpt lat="43.48821" lon="6.62491">
        <ele>22.2</ele>
        <time>2021-12-10T14:36:55.000Z</time>
      </trkpt>
      <trkpt lat="43.48812" lon="6.62493">
        <ele>22.9</ele>
        <time>2021-12-10T14:38:05.000Z</time>
      </trkpt>
      <trkpt lat="43.48802" lon="6.62495">
        <ele>23</ele>
        <time>2021-12-10T14:38:19.000Z</time>
      </trkpt>
      <trkpt lat="43.48793" lon="6.62492">
        <ele>23.1</ele>
        <time>2021-12-10T14:38:31.000Z</time>
      </trkpt>
      <trkpt lat="43.48785" lon="6.62484">
        <ele>23.7</ele>
        <time>2021-12-10T14:38:41.000Z</time>
      </trkpt>
      <trkpt lat="43.48777" lon="6.62478">
        <ele>24.4</ele>
        <time>2021-12-10T14:38:50.000Z</time>
      </trkpt>
      <trkpt lat="43.48768" lon="6.62474">
        <ele>25.4</ele>
        <time>2021-12-10T14:39:00.000Z</time>
      </trkpt>
      <trkpt lat="43.4876" lon="6.62471">
        <ele>25.6</ele>
        <time>2021-12-10T14:39:09.000Z</time>
      </trkpt>
      <trkpt lat="43.48751" lon="6.62465">
        <ele>26.6</ele>
        <time>2021-12-10T14:39:19.000Z</time>
      </trkpt>
      <trkpt lat="43.48744" lon="6.62456">
        <ele>27.6</ele>
        <time>2021-12-10T14:39:30.000Z</time>
      </trkpt>
      <trkpt lat="43.48737" lon="6.62447">
        <ele>28.9</ele>
        <time>2021-12-10T14:39:39.000Z</time>
      </trkpt>
      <trkpt lat="43.48731" lon="6.62437">
        <ele>29.7</ele>
        <time>2021-12-10T14:39:49.000Z</time>
      </trkpt>
      <trkpt lat="43.48726" lon="6.62426">
        <ele>30.3</ele>
        <time>2021-12-10T14:40:00.000Z</time>
      </trkpt>
      <trkpt lat="43.48723" lon="6.62413">
        <ele>30.7</ele>
        <time>2021-12-10T14:40:09.000Z</time>
      </trkpt>
      <trkpt lat="43.48721" lon="6.62401">
        <ele>31.2</ele>
        <time>2021-12-10T14:40:18.000Z</time>
      </trkpt>
      <trkpt lat="43.48717" lon="6.62389">
        <ele>31.6</ele>
        <time>2021-12-10T14:40:27.000Z</time>
      </trkpt>
      <trkpt lat="43.48714" lon="6.62377">
        <ele>32.6</ele>
        <time>2021-12-10T14:40:36.000Z</time>
      </trkpt>
      <trkpt lat="43.48708" lon="6.62367">
        <ele>33</ele>
        <time>2021-12-10T14:40:45.000Z</time>
      </trkpt>
      <trkpt lat="43.48703" lon="6.62356">
        <ele>33.8</ele>
        <time>2021-12-10T14:40:55.000Z</time>
      </trkpt>
      <trkpt lat="43.48697" lon="6.62347">
        <ele>34</ele>
        <time>2021-12-10T14:41:03.000Z</time>
      </trkpt>
      <trkpt lat="43.48689" lon="6.62339">
        <ele>33.8</ele>
        <time>2021-12-10T14:41:11.000Z</time>
      </trkpt>
      <trkpt lat="43.48681" lon="6.62333">
        <ele>34</ele>
        <time>2021-12-10T14:41:19.000Z</time>
      </trkpt>
      <trkpt lat="43.48673" lon="6.62324">
        <ele>34.6</ele>
        <time>2021-12-10T14:41:28.000Z</time>
      </trkpt>
      <trkpt lat="43.4867" lon="6.62312">
        <ele>35.8</ele>
        <time>2021-12-10T14:41:38.000Z</time>
      </trkpt>
      <trkpt lat="43.48669" lon="6.62299">
        <ele>36.2</ele>
        <time>2021-12-10T14:41:47.000Z</time>
      </trkpt>
      <trkpt lat="43.48668" lon="6.62287">
        <ele>37.1</ele>
        <time>2021-12-10T14:41:56.000Z</time>
      </trkpt>
      <trkpt lat="43.48666" lon="6.62274">
        <ele>37.7</ele>
        <time>2021-12-10T14:42:05.000Z</time>
      </trkpt>
      <trkpt lat="43.48661" lon="6.62263">
        <ele>38.6</ele>
        <time>2021-12-10T14:42:13.000Z</time>
      </trkpt>
      <trkpt lat="43.48654" lon="6.62255">
        <ele>39.2</ele>
        <time>2021-12-10T14:42:22.000Z</time>
      </trkpt>
      <trkpt lat="43.48647" lon="6.62247">
        <ele>40.3</ele>
        <time>2021-12-10T14:42:33.000Z</time>
      </trkpt>
      <trkpt lat="43.48641" lon="6.62235">
        <ele>41.1</ele>
        <time>2021-12-10T14:42:43.000Z</time>
      </trkpt>
      <trkpt lat="43.48639" lon="6.62222">
        <ele>41.4</ele>
        <time>2021-12-10T14:42:53.000Z</time>
      </trkpt>
      <trkpt lat="43.48638" lon="6.62209">
        <ele>41.8</ele>
        <time>2021-12-10T14:43:02.000Z</time>
      </trkpt>
      <trkpt lat="43.48638" lon="6.62195">
        <ele>42.5</ele>
        <time>2021-12-10T14:43:11.000Z</time>
      </trkpt>
      <trkpt lat="43.48638" lon="6.62182">
        <ele>43.2</ele>
        <time>2021-12-10T14:43:20.000Z</time>
      </trkpt>
      <trkpt lat="43.48636" lon="6.62169">
        <ele>44</ele>
        <time>2021-12-10T14:43:29.000Z</time>
      </trkpt>
      <trkpt lat="43.48631" lon="6.62157">
        <ele>44.8</ele>
        <time>2021-12-10T14:43:38.000Z</time>
      </trkpt>
      <trkpt lat="43.48627" lon="6.62145">
        <ele>45.5</ele>
        <time>2021-12-10T14:43:47.000Z</time>
      </trkpt>
      <trkpt lat="43.48624" lon="6.62132">
        <ele>45.7</ele>
        <time>2021-12-10T14:43:55.000Z</time>
      </trkpt>
      <trkpt lat="43.48623" lon="6.6212">
        <ele>45.8</ele>
        <time>2021-12-10T14:44:03.000Z</time>
      </trkpt>
      <trkpt lat="43.48626" lon="6.62107">
        <ele>46</ele>
        <time>2021-12-10T14:44:12.000Z</time>
      </trkpt>
      <trkpt lat="43.4863" lon="6.62095">
        <ele>47.5</ele>
        <time>2021-12-10T14:44:21.000Z</time>
      </trkpt>
      <trkpt lat="43.48635" lon="6.62085">
        <ele>48.1</ele>
        <time>2021-12-10T14:44:29.000Z</time>
      </trkpt>
      <trkpt lat="43.48643" lon="6.62077">
        <ele>48.1</ele>
        <time>2021-12-10T14:44:38.000Z</time>
      </trkpt>
      <trkpt lat="43.48652" lon="6.62069">
        <ele>48.2</ele>
        <time>2021-12-10T14:44:47.000Z</time>
      </trkpt>
      <trkpt lat="43.4866" lon="6.62061">
        <ele>48.1</ele>
        <time>2021-12-10T14:44:55.000Z</time>
      </trkpt>
      <trkpt lat="43.48666" lon="6.62051">
        <ele>49</ele>
        <time>2021-12-10T14:45:04.000Z</time>
      </trkpt>
      <trkpt lat="43.4867" lon="6.62039">
        <ele>49.6</ele>
        <time>2021-12-10T14:45:13.000Z</time>
      </trkpt>
      <trkpt lat="43.48671" lon="6.62026">
        <ele>49.6</ele>
        <time>2021-12-10T14:45:21.000Z</time>
      </trkpt>
      <trkpt lat="43.48672" lon="6.62013">
        <ele>49.9</ele>
        <time>2021-12-10T14:45:29.000Z</time>
      </trkpt>
      <trkpt lat="43.48675" lon="6.62001">
        <ele>50.8</ele>
        <time>2021-12-10T14:45:38.000Z</time>
      </trkpt>
      <trkpt lat="43.48676" lon="6.61988">
        <ele>50.9</ele>
        <time>2021-12-10T14:45:47.000Z</time>
      </trkpt>
      <trkpt lat="43.48675" lon="6.61975">
        <ele>51.8</ele>
        <time>2021-12-10T14:46:01.000Z</time>
      </trkpt>
      <trkpt lat="43.48668" lon="6.61966">
        <ele>50.5</ele>
        <time>2021-12-10T14:48:28.000Z</time>
      </trkpt>
      <trkpt lat="43.48659" lon="6.61965">
        <ele>50.1</ele>
        <time>2021-12-10T14:48:41.000Z</time>
      </trkpt>
      <trkpt lat="43.4865" lon="6.61962">
        <ele>49.3</ele>
        <time>2021-12-10T14:48:51.000Z</time>
      </trkpt>
      <trkpt lat="43.48641" lon="6.61956">
        <ele>48.8</ele>
        <time>2021-12-10T14:49:00.000Z</time>
      </trkpt>
      <trkpt lat="43.48634" lon="6.61948">
        <ele>48</ele>
        <time>2021-12-10T14:49:09.000Z</time>
      </trkpt>
      <trkpt lat="43.48627" lon="6.61941">
        <ele>47</ele>
        <time>2021-12-10T14:49:18.000Z</time>
      </trkpt>
      <trkpt lat="43.48619" lon="6.61933">
        <ele>45.7</ele>
        <time>2021-12-10T14:49:26.000Z</time>
      </trkpt>
      <trkpt lat="43.4861" lon="6.61929">
        <ele>44.4</ele>
        <time>2021-12-10T14:49:35.000Z</time>
      </trkpt>
      <trkpt lat="43.486" lon="6.61927">
        <ele>43.2</ele>
        <time>2021-12-10T14:49:43.000Z</time>
      </trkpt>
      <trkpt lat="43.48591" lon="6.61926">
        <ele>42.5</ele>
        <time>2021-12-10T14:49:51.000Z</time>
      </trkpt>
      <trkpt lat="43.48582" lon="6.61925">
        <ele>42.5</ele>
        <time>2021-12-10T14:50:01.000Z</time>
      </trkpt>
      <trkpt lat="43.48573" lon="6.61926">
        <ele>43.7</ele>
        <time>2021-12-10T14:50:12.000Z</time>
      </trkpt>
      <trkpt lat="43.48564" lon="6.6193">
        <ele>44.4</ele>
        <time>2021-12-10T14:50:23.000Z</time>
      </trkpt>
      <trkpt lat="43.48556" lon="6.61937">
        <ele>45.8</ele>
        <time>2021-12-10T14:50:34.000Z</time>
      </trkpt>
      <trkpt lat="43.48549" lon="6.61947">
        <ele>46.8</ele>
        <time>2021-12-10T14:50:45.000Z</time>
      </trkpt>
      <trkpt lat="43.48541" lon="6.61954">
        <ele>47.6</ele>
        <time>2021-12-10T14:50:54.000Z</time>
      </trkpt>
      <trkpt lat="43.48532" lon="6.61959">
        <ele>48.4</ele>
        <time>2021-12-10T14:51:03.000Z</time>
      </trkpt>
      <trkpt lat="43.48523" lon="6.61962">
        <ele>49.4</ele>
        <time>2021-12-10T14:51:12.000Z</time>
      </trkpt>
      <trkpt lat="43.48514" lon="6.61968">
        <ele>50.7</ele>
        <time>2021-12-10T14:51:20.000Z</time>
      </trkpt>
      <trkpt lat="43.48505" lon="6.61973">
        <ele>51.9</ele>
        <time>2021-12-10T14:51:29.000Z</time>
      </trkpt>
      <trkpt lat="43.48496" lon="6.61975">
        <ele>52.4</ele>
        <time>2021-12-10T14:51:40.000Z</time>
      </trkpt>
      <trkpt lat="43.48486" lon="6.61977">
        <ele>52.7</ele>
        <time>2021-12-10T14:51:51.000Z</time>
      </trkpt>
      <trkpt lat="43.48476" lon="6.61976">
        <ele>52.7</ele>
        <time>2021-12-10T14:52:00.000Z</time>
      </trkpt>
      <trkpt lat="43.48467" lon="6.61976">
        <ele>53.5</ele>
        <time>2021-12-10T14:52:08.000Z</time>
      </trkpt>
      <trkpt lat="43.48458" lon="6.61975">
        <ele>54.7</ele>
        <time>2021-12-10T14:52:17.000Z</time>
      </trkpt>
      <trkpt lat="43.48448" lon="6.61974">
        <ele>56.5</ele>
        <time>2021-12-10T14:52:28.000Z</time>
      </trkpt>
      <trkpt lat="43.48439" lon="6.61972">
        <ele>57.2</ele>
        <time>2021-12-10T14:52:38.000Z</time>
      </trkpt>
      <trkpt lat="43.4843" lon="6.6197">
        <ele>58.2</ele>
        <time>2021-12-10T14:52:47.000Z</time>
      </trkpt>
      <trkpt lat="43.4842" lon="6.6197">
        <ele>59.2</ele>
        <time>2021-12-10T14:52:56.000Z</time>
      </trkpt>
      <trkpt lat="43.48412" lon="6.61973">
        <ele>59.4</ele>
        <time>2021-12-10T14:54:17.000Z</time>
      </trkpt>
      <trkpt lat="43.48414" lon="6.6196">
        <ele>59.6</ele>
        <time>2021-12-10T14:55:04.000Z</time>
      </trkpt>
      <trkpt lat="43.48414" lon="6.61947">
        <ele>60.6</ele>
        <time>2021-12-10T14:55:14.000Z</time>
      </trkpt>
      <trkpt lat="43.48414" lon="6.61934">
        <ele>60.6</ele>
        <time>2021-12-10T14:55:23.000Z</time>
      </trkpt>
      <trkpt lat="43.4841" lon="6.61921">
        <ele>59.9</ele>
        <time>2021-12-10T14:55:31.000Z</time>
      </trkpt>
      <trkpt lat="43.4841" lon="6.61909">
        <ele>60</ele>
        <time>2021-12-10T14:55:39.000Z</time>
      </trkpt>
      <trkpt lat="43.48409" lon="6.61895">
        <ele>60.4</ele>
        <time>2021-12-10T14:55:48.000Z</time>
      </trkpt>
      <trkpt lat="43.48408" lon="6.61882">
        <ele>61.1</ele>
        <time>2021-12-10T14:55:57.000Z</time>
      </trkpt>
      <trkpt lat="43.48408" lon="6.61869">
        <ele>61</ele>
        <time>2021-12-10T14:56:05.000Z</time>
      </trkpt>
      <trkpt lat="43.48406" lon="6.61856">
        <ele>61.5</ele>
        <time>2021-12-10T14:56:14.000Z</time>
      </trkpt>
      <trkpt lat="43.48404" lon="6.61844">
        <ele>61.6</ele>
        <time>2021-12-10T14:56:21.000Z</time>
      </trkpt>
      <trkpt lat="43.48401" lon="6.61832">
        <ele>61.3</ele>
        <time>2021-12-10T14:56:29.000Z</time>
      </trkpt>
      <trkpt lat="43.48399" lon="6.61819">
        <ele>61.9</ele>
        <time>2021-12-10T14:56:37.000Z</time>
      </trkpt>
      <trkpt lat="43.48399" lon="6.61807">
        <ele>61.7</ele>
        <time>2021-12-10T14:56:45.000Z</time>
      </trkpt>
      <trkpt lat="43.48395" lon="6.61794">
        <ele>61.8</ele>
        <time>2021-12-10T14:56:52.000Z</time>
      </trkpt>
      <trkpt lat="43.48393" lon="6.61781">
        <ele>61.2</ele>
        <time>2021-12-10T14:56:59.000Z</time>
      </trkpt>
      <trkpt lat="43.48391" lon="6.61769">
        <ele>61.7</ele>
        <time>2021-12-10T14:57:07.000Z</time>
      </trkpt>
      <trkpt lat="43.48391" lon="6.61755">
        <ele>62.6</ele>
        <time>2021-12-10T14:57:16.000Z</time>
      </trkpt>
      <trkpt lat="43.4839" lon="6.61743">
        <ele>63.3</ele>
        <time>2021-12-10T14:57:25.000Z</time>
      </trkpt>
      <trkpt lat="43.48389" lon="6.6173">
        <ele>64.1</ele>
        <time>2021-12-10T14:57:34.000Z</time>
      </trkpt>
      <trkpt lat="43.48388" lon="6.61716">
        <ele>64.5</ele>
        <time>2021-12-10T14:57:43.000Z</time>
      </trkpt>
      <trkpt lat="43.48387" lon="6.61703">
        <ele>64.7</ele>
        <time>2021-12-10T14:57:52.000Z</time>
      </trkpt>
      <trkpt lat="43.48386" lon="6.6169">
        <ele>64.4</ele>
        <time>2021-12-10T14:58:00.000Z</time>
      </trkpt>
      <trkpt lat="43.48384" lon="6.61677">
        <ele>64.3</ele>
        <time>2021-12-10T14:58:09.000Z</time>
      </trkpt>
      <trkpt lat="43.48383" lon="6.61665">
        <ele>65.2</ele>
        <time>2021-12-10T14:58:18.000Z</time>
      </trkpt>
      <trkpt lat="43.48383" lon="6.61652">
        <ele>65.5</ele>
        <time>2021-12-10T14:58:26.000Z</time>
      </trkpt>
      <trkpt lat="43.48382" lon="6.61639">
        <ele>65.8</ele>
        <time>2021-12-10T14:58:34.000Z</time>
      </trkpt>
      <trkpt lat="43.48382" lon="6.61626">
        <ele>66.2</ele>
        <time>2021-12-10T14:58:42.000Z</time>
      </trkpt>
      <trkpt lat="43.4838" lon="6.61614">
        <ele>66.6</ele>
        <time>2021-12-10T14:58:51.000Z</time>
      </trkpt>
      <trkpt lat="43.48378" lon="6.61602">
        <ele>67.6</ele>
        <time>2021-12-10T14:59:00.000Z</time>
      </trkpt>
      <trkpt lat="43.48376" lon="6.61589">
        <ele>68.1</ele>
        <time>2021-12-10T14:59:09.000Z</time>
      </trkpt>
      <trkpt lat="43.48375" lon="6.61576">
        <ele>69.3</ele>
        <time>2021-12-10T14:59:18.000Z</time>
      </trkpt>
      <trkpt lat="43.48372" lon="6.61565">
        <ele>71.3</ele>
        <time>2021-12-10T14:59:37.000Z</time>
      </trkpt>
      <trkpt lat="43.48371" lon="6.61552">
        <ele>71.6</ele>
        <time>2021-12-10T15:00:06.000Z</time>
      </trkpt>
      <trkpt lat="43.4837" lon="6.61539">
        <ele>71.4</ele>
        <time>2021-12-10T15:00:17.000Z</time>
      </trkpt>
      <trkpt lat="43.48369" lon="6.61526">
        <ele>70.9</ele>
        <time>2021-12-10T15:00:25.000Z</time>
      </trkpt>
      <trkpt lat="43.48368" lon="6.61512">
        <ele>70.5</ele>
        <time>2021-12-10T15:00:33.000Z</time>
      </trkpt>
      <trkpt lat="43.48367" lon="6.61499">
        <ele>70.3</ele>
        <time>2021-12-10T15:00:41.000Z</time>
      </trkpt>
      <trkpt lat="43.48365" lon="6.61486">
        <ele>70.5</ele>
        <time>2021-12-10T15:00:49.000Z</time>
      </trkpt>
      <trkpt lat="43.48359" lon="6.61475">
        <ele>70.8</ele>
        <time>2021-12-10T15:00:58.000Z</time>
      </trkpt>
      <trkpt lat="43.4836" lon="6.61463">
        <ele>70.7</ele>
        <time>2021-12-10T15:01:31.000Z</time>
      </trkpt>
      <trkpt lat="43.48357" lon="6.61451">
        <ele>70.7</ele>
        <time>2021-12-10T15:04:14.000Z</time>
      </trkpt>
      <trkpt lat="43.48358" lon="6.61437">
        <ele>71.5</ele>
        <time>2021-12-10T15:04:23.000Z</time>
      </trkpt>
      <trkpt lat="43.48357" lon="6.61424">
        <ele>72.4</ele>
        <time>2021-12-10T15:04:31.000Z</time>
      </trkpt>
      <trkpt lat="43.48357" lon="6.61411">
        <ele>72.7</ele>
        <time>2021-12-10T15:04:39.000Z</time>
      </trkpt>
      <trkpt lat="43.48355" lon="6.61398">
        <ele>73.2</ele>
        <time>2021-12-10T15:04:47.000Z</time>
      </trkpt>
      <trkpt lat="43.48353" lon="6.61386">
        <ele>74</ele>
        <time>2021-12-10T15:04:54.000Z</time>
      </trkpt>
      <trkpt lat="43.48353" lon="6.61373">
        <ele>74.4</ele>
        <time>2021-12-10T15:05:05.000Z</time>
      </trkpt>
      <trkpt lat="43.48352" lon="6.61361">
        <ele>74.9</ele>
        <time>2021-12-10T15:05:12.000Z</time>
      </trkpt>
      <trkpt lat="43.48349" lon="6.61348">
        <ele>75.2</ele>
        <time>2021-12-10T15:05:20.000Z</time>
      </trkpt>
      <trkpt lat="43.48348" lon="6.61335">
        <ele>75.3</ele>
        <time>2021-12-10T15:05:28.000Z</time>
      </trkpt>
      <trkpt lat="43.48348" lon="6.61321">
        <ele>75.3</ele>
        <time>2021-12-10T15:05:36.000Z</time>
      </trkpt>
      <trkpt lat="43.48346" lon="6.61307">
        <ele>75.7</ele>
        <time>2021-12-10T15:05:44.000Z</time>
      </trkpt>
      <trkpt lat="43.48343" lon="6.61296">
        <ele>76.4</ele>
        <time>2021-12-10T15:05:53.000Z</time>
      </trkpt>
      <trkpt lat="43.48343" lon="6.61283">
        <ele>76</ele>
        <time>2021-12-10T15:06:22.000Z</time>
      </trkpt>
      <trkpt lat="43.48335" lon="6.61289">
        <ele>76.1</ele>
        <time>2021-12-10T15:08:04.000Z</time>
      </trkpt>
      <trkpt lat="43.48326" lon="6.61295">
        <ele>76.5</ele>
        <time>2021-12-10T15:08:14.000Z</time>
      </trkpt>
      <trkpt lat="43.48318" lon="6.61301">
        <ele>76.8</ele>
        <time>2021-12-10T15:08:22.000Z</time>
      </trkpt>
      <trkpt lat="43.48309" lon="6.61306">
        <ele>77.2</ele>
        <time>2021-12-10T15:08:31.000Z</time>
      </trkpt>
      <trkpt lat="43.48301" lon="6.61312">
        <ele>77.4</ele>
        <time>2021-12-10T15:08:42.000Z</time>
      </trkpt>
      <trkpt lat="43.48292" lon="6.61317">
        <ele>77.5</ele>
        <time>2021-12-10T15:08:51.000Z</time>
      </trkpt>
      <trkpt lat="43.48283" lon="6.61321">
        <ele>77.8</ele>
        <time>2021-12-10T15:08:59.000Z</time>
      </trkpt>
      <trkpt lat="43.48274" lon="6.61327">
        <ele>78.1</ele>
        <time>2021-12-10T15:09:09.000Z</time>
      </trkpt>
      <trkpt lat="43.48265" lon="6.61331">
        <ele>78</ele>
        <time>2021-12-10T15:09:17.000Z</time>
      </trkpt>
      <trkpt lat="43.48255" lon="6.61335">
        <ele>77.8</ele>
        <time>2021-12-10T15:09:25.000Z</time>
      </trkpt>
      <trkpt lat="43.48246" lon="6.6134">
        <ele>77.6</ele>
        <time>2021-12-10T15:09:31.000Z</time>
      </trkpt>
      <trkpt lat="43.48238" lon="6.61345">
        <ele>77.6</ele>
        <time>2021-12-10T15:09:36.000Z</time>
      </trkpt>
      <trkpt lat="43.4823" lon="6.61353">
        <ele>77.9</ele>
        <time>2021-12-10T15:09:42.000Z</time>
      </trkpt>
      <trkpt lat="43.48222" lon="6.61361">
        <ele>77.8</ele>
        <time>2021-12-10T15:09:48.000Z</time>
      </trkpt>
      <trkpt lat="43.48215" lon="6.61369">
        <ele>77.9</ele>
        <time>2021-12-10T15:09:54.000Z</time>
      </trkpt>
      <trkpt lat="43.48208" lon="6.61377">
        <ele>77.7</ele>
        <time>2021-12-10T15:10:00.000Z</time>
      </trkpt>
      <trkpt lat="43.48199" lon="6.61384">
        <ele>77.5</ele>
        <time>2021-12-10T15:10:07.000Z</time>
      </trkpt>
      <trkpt lat="43.48191" lon="6.61391">
        <ele>77.2</ele>
        <time>2021-12-10T15:10:13.000Z</time>
      </trkpt>
      <trkpt lat="43.48181" lon="6.61397">
        <ele>76.8</ele>
        <time>2021-12-10T15:10:19.000Z</time>
      </trkpt>
      <trkpt lat="43.48173" lon="6.61403">
        <ele>76.1</ele>
        <time>2021-12-10T15:10:25.000Z</time>
      </trkpt>
      <trkpt lat="43.48162" lon="6.61406">
        <ele>76.1</ele>
        <time>2021-12-10T15:10:31.000Z</time>
      </trkpt>
      <trkpt lat="43.48153" lon="6.61409">
        <ele>75.9</ele>
        <time>2021-12-10T15:10:38.000Z</time>
      </trkpt>
      <trkpt lat="43.48144" lon="6.61412">
        <ele>75.8</ele>
        <time>2021-12-10T15:10:44.000Z</time>
      </trkpt>
      <trkpt lat="43.48135" lon="6.61414">
        <ele>75.9</ele>
        <time>2021-12-10T15:10:49.000Z</time>
      </trkpt>
      <trkpt lat="43.48125" lon="6.61418">
        <ele>75.4</ele>
        <time>2021-12-10T15:10:56.000Z</time>
      </trkpt>
      <trkpt lat="43.48116" lon="6.61423">
        <ele>75.4</ele>
        <time>2021-12-10T15:11:02.000Z</time>
      </trkpt>
      <trkpt lat="43.48107" lon="6.61426">
        <ele>75.5</ele>
        <time>2021-12-10T15:11:07.000Z</time>
      </trkpt>
      <trkpt lat="43.48098" lon="6.61432">
        <ele>75.4</ele>
        <time>2021-12-10T15:11:13.000Z</time>
      </trkpt>
      <trkpt lat="43.48089" lon="6.61436">
        <ele>75.4</ele>
        <time>2021-12-10T15:11:18.000Z</time>
      </trkpt>
      <trkpt lat="43.48079" lon="6.61439">
        <ele>75.3</ele>
        <time>2021-12-10T15:11:25.000Z</time>
      </trkpt>
      <trkpt lat="43.4807" lon="6.61442">
        <ele>75.6</ele>
        <time>2021-12-10T15:11:31.000Z</time>
      </trkpt>
      <trkpt lat="43.48061" lon="6.61447">
        <ele>75.4</ele>
        <time>2021-12-10T15:11:37.000Z</time>
      </trkpt>
      <trkpt lat="43.48051" lon="6.61451">
        <ele>75.3</ele>
        <time>2021-12-10T15:11:43.000Z</time>
      </trkpt>
      <trkpt lat="43.48043" lon="6.61457">
        <ele>75.1</ele>
        <time>2021-12-10T15:11:49.000Z</time>
      </trkpt>
      <trkpt lat="43.48035" lon="6.61464">
        <ele>75.1</ele>
        <time>2021-12-10T15:11:55.000Z</time>
      </trkpt>
      <trkpt lat="43.48026" lon="6.61471">
        <ele>75.1</ele>
        <time>2021-12-10T15:12:02.000Z</time>
      </trkpt>
      <trkpt lat="43.48016" lon="6.61477">
        <ele>74.6</ele>
        <time>2021-12-10T15:12:08.000Z</time>
      </trkpt>
      <trkpt lat="43.48008" lon="6.61483">
        <ele>75</ele>
        <time>2021-12-10T15:12:14.000Z</time>
      </trkpt>
      <trkpt lat="43.47998" lon="6.61489">
        <ele>74.9</ele>
        <time>2021-12-10T15:12:21.000Z</time>
      </trkpt>
      <trkpt lat="43.4799" lon="6.61494">
        <ele>74.9</ele>
        <time>2021-12-10T15:12:27.000Z</time>
      </trkpt>
      <trkpt lat="43.4798" lon="6.615">
        <ele>74.6</ele>
        <time>2021-12-10T15:12:33.000Z</time>
      </trkpt>
      <trkpt lat="43.47972" lon="6.61508">
        <ele>74.5</ele>
        <time>2021-12-10T15:12:43.000Z</time>
      </trkpt>
      <trkpt lat="43.47963" lon="6.61511">
        <ele>74.3</ele>
        <time>2021-12-10T15:12:49.000Z</time>
      </trkpt>
      <trkpt lat="43.47953" lon="6.61514">
        <ele>74.1</ele>
        <time>2021-12-10T15:12:55.000Z</time>
      </trkpt>
      <trkpt lat="43.47944" lon="6.6152">
        <ele>74</ele>
        <time>2021-12-10T15:13:02.000Z</time>
      </trkpt>
      <trkpt lat="43.47935" lon="6.61527">
        <ele>73.8</ele>
        <time>2021-12-10T15:13:09.000Z</time>
      </trkpt>
      <trkpt lat="43.47926" lon="6.61533">
        <ele>73.6</ele>
        <time>2021-12-10T15:13:15.000Z</time>
      </trkpt>
      <trkpt lat="43.47918" lon="6.61539">
        <ele>73.5</ele>
        <time>2021-12-10T15:13:21.000Z</time>
      </trkpt>
      <trkpt lat="43.47909" lon="6.61544">
        <ele>73.2</ele>
        <time>2021-12-10T15:13:27.000Z</time>
      </trkpt>
      <trkpt lat="43.47901" lon="6.6155">
        <ele>72.7</ele>
        <time>2021-12-10T15:13:33.000Z</time>
      </trkpt>
      <trkpt lat="43.47891" lon="6.61555">
        <ele>72.5</ele>
        <time>2021-12-10T15:13:39.000Z</time>
      </trkpt>
      <trkpt lat="43.47882" lon="6.6156">
        <ele>72.4</ele>
        <time>2021-12-10T15:13:45.000Z</time>
      </trkpt>
      <trkpt lat="43.47872" lon="6.61563">
        <ele>72.1</ele>
        <time>2021-12-10T15:13:51.000Z</time>
      </trkpt>
      <trkpt lat="43.47862" lon="6.61565">
        <ele>71.6</ele>
        <time>2021-12-10T15:13:57.000Z</time>
      </trkpt>
      <trkpt lat="43.47853" lon="6.61567">
        <ele>71.4</ele>
        <time>2021-12-10T15:14:03.000Z</time>
      </trkpt>
      <trkpt lat="43.47842" lon="6.61568">
        <ele>71.1</ele>
        <time>2021-12-10T15:14:09.000Z</time>
      </trkpt>
      <trkpt lat="43.47833" lon="6.61567">
        <ele>70.5</ele>
        <time>2021-12-10T15:14:15.000Z</time>
      </trkpt>
      <trkpt lat="43.47822" lon="6.61564">
        <ele>70</ele>
        <time>2021-12-10T15:14:20.000Z</time>
      </trkpt>
      <trkpt lat="43.47811" lon="6.61561">
        <ele>69.6</ele>
        <time>2021-12-10T15:14:24.000Z</time>
      </trkpt>
      <trkpt lat="43.47802" lon="6.61556">
        <ele>69.1</ele>
        <time>2021-12-10T15:14:28.000Z</time>
      </trkpt>
      <trkpt lat="43.47791" lon="6.61553">
        <ele>69</ele>
        <time>2021-12-10T15:14:32.000Z</time>
      </trkpt>
      <trkpt lat="43.47781" lon="6.61546">
        <ele>68.7</ele>
        <time>2021-12-10T15:14:36.000Z</time>
      </trkpt>
      <trkpt lat="43.47773" lon="6.61539">
        <ele>68.4</ele>
        <time>2021-12-10T15:14:40.000Z</time>
      </trkpt>
      <trkpt lat="43.47765" lon="6.6153">
        <ele>68</ele>
        <time>2021-12-10T15:14:44.000Z</time>
      </trkpt>
      <trkpt lat="43.47755" lon="6.61522">
        <ele>67.7</ele>
        <time>2021-12-10T15:14:48.000Z</time>
      </trkpt>
      <trkpt lat="43.47747" lon="6.61514">
        <ele>66.8</ele>
        <time>2021-12-10T15:14:52.000Z</time>
      </trkpt>
      <trkpt lat="43.47738" lon="6.61508">
        <ele>66.3</ele>
        <time>2021-12-10T15:14:56.000Z</time>
      </trkpt>
      <trkpt lat="43.47729" lon="6.61502">
        <ele>65.8</ele>
        <time>2021-12-10T15:15:00.000Z</time>
      </trkpt>
      <trkpt lat="43.47719" lon="6.61495">
        <ele>65.2</ele>
        <time>2021-12-10T15:15:04.000Z</time>
      </trkpt>
      <trkpt lat="43.4771" lon="6.61488">
        <ele>64.4</ele>
        <time>2021-12-10T15:15:08.000Z</time>
      </trkpt>
      <trkpt lat="43.47701" lon="6.61483">
        <ele>63.7</ele>
        <time>2021-12-10T15:15:12.000Z</time>
      </trkpt>
      <trkpt lat="43.47692" lon="6.61477">
        <ele>63.1</ele>
        <time>2021-12-10T15:15:16.000Z</time>
      </trkpt>
      <trkpt lat="43.47682" lon="6.61472">
        <ele>62.4</ele>
        <time>2021-12-10T15:15:20.000Z</time>
      </trkpt>
      <trkpt lat="43.47671" lon="6.61471">
        <ele>61.8</ele>
        <time>2021-12-10T15:15:24.000Z</time>
      </trkpt>
      <trkpt lat="43.47661" lon="6.61468">
        <ele>61.3</ele>
        <time>2021-12-10T15:15:28.000Z</time>
      </trkpt>
      <trkpt lat="43.47651" lon="6.61464">
        <ele>60.5</ele>
        <time>2021-12-10T15:15:32.000Z</time>
      </trkpt>
      <trkpt lat="43.47639" lon="6.61461">
        <ele>60.1</ele>
        <time>2021-12-10T15:15:36.000Z</time>
      </trkpt>
      <trkpt lat="43.47629" lon="6.61458">
        <ele>59.5</ele>
        <time>2021-12-10T15:15:40.000Z</time>
      </trkpt>
      <trkpt lat="43.47619" lon="6.61457">
        <ele>59.1</ele>
        <time>2021-12-10T15:15:44.000Z</time>
      </trkpt>
      <trkpt lat="43.47608" lon="6.61456">
        <ele>58.3</ele>
        <time>2021-12-10T15:15:48.000Z</time>
      </trkpt>
      <trkpt lat="43.47598" lon="6.61455">
        <ele>58.3</ele>
        <time>2021-12-10T15:15:52.000Z</time>
      </trkpt>
      <trkpt lat="43.47588" lon="6.61454">
        <ele>57.7</ele>
        <time>2021-12-10T15:15:56.000Z</time>
      </trkpt>
      <trkpt lat="43.47577" lon="6.61454">
        <ele>57.6</ele>
        <time>2021-12-10T15:16:00.000Z</time>
      </trkpt>
      <trkpt lat="43.47567" lon="6.61453">
        <ele>57.2</ele>
        <time>2021-12-10T15:16:04.000Z</time>
      </trkpt>
      <trkpt lat="43.47558" lon="6.61451">
        <ele>57</ele>
        <time>2021-12-10T15:16:08.000Z</time>
      </trkpt>
      <trkpt lat="43.47547" lon="6.61449">
        <ele>56.6</ele>
        <time>2021-12-10T15:16:12.000Z</time>
      </trkpt>
      <trkpt lat="43.47537" lon="6.61446">
        <ele>56.3</ele>
        <time>2021-12-10T15:16:16.000Z</time>
      </trkpt>
      <trkpt lat="43.47527" lon="6.61442">
        <ele>56.1</ele>
        <time>2021-12-10T15:16:20.000Z</time>
      </trkpt>
      <trkpt lat="43.47517" lon="6.61436">
        <ele>55.5</ele>
        <time>2021-12-10T15:16:24.000Z</time>
      </trkpt>
      <trkpt lat="43.47507" lon="6.61427">
        <ele>55.1</ele>
        <time>2021-12-10T15:16:29.000Z</time>
      </trkpt>
      <trkpt lat="43.47498" lon="6.61422">
        <ele>54.8</ele>
        <time>2021-12-10T15:16:33.000Z</time>
      </trkpt>
      <trkpt lat="43.47489" lon="6.61416">
        <ele>54.1</ele>
        <time>2021-12-10T15:16:37.000Z</time>
      </trkpt>
      <trkpt lat="43.47478" lon="6.6141">
        <ele>53.5</ele>
        <time>2021-12-10T15:16:41.000Z</time>
      </trkpt>
      <trkpt lat="43.4747" lon="6.61403">
        <ele>52.8</ele>
        <time>2021-12-10T15:16:47.000Z</time>
      </trkpt>
      <trkpt lat="43.47461" lon="6.61398">
        <ele>51.7</ele>
        <time>2021-12-10T15:16:56.000Z</time>
      </trkpt>
      <trkpt lat="43.47451" lon="6.61394">
        <ele>50.8</ele>
        <time>2021-12-10T15:17:05.000Z</time>
      </trkpt>
      <trkpt lat="43.47445" lon="6.61385">
        <ele>50.3</ele>
        <time>2021-12-10T15:17:20.000Z</time>
      </trkpt>
      <trkpt lat="43.4745" lon="6.61396">
        <ele>50.2</ele>
        <time>2021-12-10T15:18:32.000Z</time>
      </trkpt>
      <trkpt lat="43.47458" lon="6.61401">
        <ele>50.8</ele>
        <time>2021-12-10T15:18:45.000Z</time>
      </trkpt>
      <trkpt lat="43.47464" lon="6.6141">
        <ele>51.8</ele>
        <time>2021-12-10T15:19:04.000Z</time>
      </trkpt>
      <trkpt lat="43.47463" lon="6.61423">
        <ele>51.9</ele>
        <time>2021-12-10T15:19:20.000Z</time>
      </trkpt>
      <trkpt lat="43.47464" lon="6.61435">
        <ele>52.8</ele>
        <time>2021-12-10T15:19:48.000Z</time>
      </trkpt>
      <trkpt lat="43.47466" lon="6.61422">
        <ele>52.3</ele>
        <time>2021-12-10T15:20:56.000Z</time>
      </trkpt>
      <trkpt lat="43.47473" lon="6.61414">
        <ele>52</ele>
        <time>2021-12-10T15:21:11.000Z</time>
      </trkpt>
      <trkpt lat="43.47482" lon="6.61413">
        <ele>52.1</ele>
        <time>2021-12-10T15:21:55.000Z</time>
      </trkpt>
      <trkpt lat="43.47472" lon="6.61412">
        <ele>51.4</ele>
        <time>2021-12-10T15:25:15.000Z</time>
      </trkpt>
      <trkpt lat="43.47465" lon="6.61404">
        <ele>50.8</ele>
        <time>2021-12-10T15:25:31.000Z</time>
      </trkpt>
      <trkpt lat="43.47456" lon="6.61397">
        <ele>50.1</ele>
        <time>2021-12-10T15:25:42.000Z</time>
      </trkpt>
      <trkpt lat="43.47448" lon="6.61391">
        <ele>49.3</ele>
        <time>2021-12-10T15:25:53.000Z</time>
      </trkpt>
      <trkpt lat="43.47439" lon="6.61386">
        <ele>48</ele>
        <time>2021-12-10T15:26:02.000Z</time>
      </trkpt>
      <trkpt lat="43.4743" lon="6.61383">
        <ele>47.9</ele>
        <time>2021-12-10T15:26:15.000Z</time>
      </trkpt>
      <trkpt lat="43.4742" lon="6.61382">
        <ele>47.5</ele>
        <time>2021-12-10T15:26:25.000Z</time>
      </trkpt>
      <trkpt lat="43.4741" lon="6.61383">
        <ele>47.2</ele>
        <time>2021-12-10T15:26:35.000Z</time>
      </trkpt>
      <trkpt lat="43.47401" lon="6.61383">
        <ele>46.8</ele>
        <time>2021-12-10T15:26:44.000Z</time>
      </trkpt>
      <trkpt lat="43.47392" lon="6.61383">
        <ele>46.5</ele>
        <time>2021-12-10T15:26:53.000Z</time>
      </trkpt>
      <trkpt lat="43.47383" lon="6.61385">
        <ele>46.4</ele>
        <time>2021-12-10T15:27:01.000Z</time>
      </trkpt>
      <trkpt lat="43.47374" lon="6.61385">
        <ele>46</ele>
        <time>2021-12-10T15:27:09.000Z</time>
      </trkpt>
      <trkpt lat="43.47364" lon="6.61387">
        <ele>45.7</ele>
        <time>2021-12-10T15:27:18.000Z</time>
      </trkpt>
      <trkpt lat="43.47355" lon="6.61388">
        <ele>45.5</ele>
        <time>2021-12-10T15:27:27.000Z</time>
      </trkpt>
      <trkpt lat="43.47346" lon="6.61391">
        <ele>45.4</ele>
        <time>2021-12-10T15:27:36.000Z</time>
      </trkpt>
      <trkpt lat="43.47337" lon="6.61388">
        <ele>45.6</ele>
        <time>2021-12-10T15:27:45.000Z</time>
      </trkpt>
      <trkpt lat="43.47329" lon="6.61383">
        <ele>45.6</ele>
        <time>2021-12-10T15:27:55.000Z</time>
      </trkpt>
      <trkpt lat="43.4732" lon="6.61378">
        <ele>45.1</ele>
        <time>2021-12-10T15:28:04.000Z</time>
      </trkpt>
      <trkpt lat="43.47311" lon="6.61375">
        <ele>45.4</ele>
        <time>2021-12-10T15:28:12.000Z</time>
      </trkpt>
      <trkpt lat="43.47302" lon="6.61369">
        <ele>44.8</ele>
        <time>2021-12-10T15:28:21.000Z</time>
      </trkpt>
      <trkpt lat="43.47292" lon="6.61365">
        <ele>44.7</ele>
        <time>2021-12-10T15:28:31.000Z</time>
      </trkpt>
      <trkpt lat="43.47283" lon="6.61363">
        <ele>44.6</ele>
        <time>2021-12-10T15:28:39.000Z</time>
      </trkpt>
      <trkpt lat="43.47273" lon="6.61361">
        <ele>44</ele>
        <time>2021-12-10T15:28:48.000Z</time>
      </trkpt>
      <trkpt lat="43.47264" lon="6.61359">
        <ele>44.1</ele>
        <time>2021-12-10T15:28:57.000Z</time>
      </trkpt>
      <trkpt lat="43.47255" lon="6.61358">
        <ele>44.1</ele>
        <time>2021-12-10T15:29:06.000Z</time>
      </trkpt>
      <trkpt lat="43.47246" lon="6.61358">
        <ele>43.7</ele>
        <time>2021-12-10T15:29:14.000Z</time>
      </trkpt>
      <trkpt lat="43.47236" lon="6.61361">
        <ele>43.6</ele>
        <time>2021-12-10T15:29:23.000Z</time>
      </trkpt>
      <trkpt lat="43.47228" lon="6.61366">
        <ele>43.7</ele>
        <time>2021-12-10T15:29:32.000Z</time>
      </trkpt>
      <trkpt lat="43.47219" lon="6.61371">
        <ele>43.7</ele>
        <time>2021-12-10T15:29:39.000Z</time>
      </trkpt>
      <trkpt lat="43.47211" lon="6.61378">
        <ele>43.8</ele>
        <time>2021-12-10T15:29:47.000Z</time>
      </trkpt>
      <trkpt lat="43.47201" lon="6.61383">
        <ele>43.6</ele>
        <time>2021-12-10T15:29:57.000Z</time>
      </trkpt>
      <trkpt lat="43.47194" lon="6.61391">
        <ele>43.6</ele>
        <time>2021-12-10T15:30:05.000Z</time>
      </trkpt>
      <trkpt lat="43.47186" lon="6.61399">
        <ele>43.4</ele>
        <time>2021-12-10T15:30:14.000Z</time>
      </trkpt>
      <trkpt lat="43.47178" lon="6.61408">
        <ele>43.8</ele>
        <time>2021-12-10T15:30:24.000Z</time>
      </trkpt>
      <trkpt lat="43.47171" lon="6.61417">
        <ele>43.4</ele>
        <time>2021-12-10T15:30:32.000Z</time>
      </trkpt>
      <trkpt lat="43.47165" lon="6.61427">
        <ele>43.4</ele>
        <time>2021-12-10T15:30:41.000Z</time>
      </trkpt>
      <trkpt lat="43.4716" lon="6.61438">
        <ele>43.6</ele>
        <time>2021-12-10T15:30:50.000Z</time>
      </trkpt>
      <trkpt lat="43.47154" lon="6.6145">
        <ele>43.7</ele>
        <time>2021-12-10T15:30:59.000Z</time>
      </trkpt>
      <trkpt lat="43.4715" lon="6.61461">
        <ele>43.7</ele>
        <time>2021-12-10T15:31:07.000Z</time>
      </trkpt>
      <trkpt lat="43.47145" lon="6.61472">
        <ele>43.2</ele>
        <time>2021-12-10T15:31:15.000Z</time>
      </trkpt>
      <trkpt lat="43.47139" lon="6.61483">
        <ele>43.1</ele>
        <time>2021-12-10T15:31:24.000Z</time>
      </trkpt>
      <trkpt lat="43.47134" lon="6.61495">
        <ele>42.9</ele>
        <time>2021-12-10T15:31:34.000Z</time>
      </trkpt>
      <trkpt lat="43.47129" lon="6.61505">
        <ele>42.7</ele>
        <time>2021-12-10T15:31:44.000Z</time>
      </trkpt>
      <trkpt lat="43.47124" lon="6.61517">
        <ele>42.6</ele>
        <time>2021-12-10T15:31:53.000Z</time>
      </trkpt>
      <trkpt lat="43.4712" lon="6.61529">
        <ele>42.2</ele>
        <time>2021-12-10T15:32:02.000Z</time>
      </trkpt>
      <trkpt lat="43.47118" lon="6.61542">
        <ele>42.3</ele>
        <time>2021-12-10T15:32:11.000Z</time>
      </trkpt>
      <trkpt lat="43.47114" lon="6.61554">
        <ele>42.1</ele>
        <time>2021-12-10T15:32:20.000Z</time>
      </trkpt>
      <trkpt lat="43.4711" lon="6.61566">
        <ele>41.7</ele>
        <time>2021-12-10T15:32:29.000Z</time>
      </trkpt>
      <trkpt lat="43.47106" lon="6.61577">
        <ele>41.5</ele>
        <time>2021-12-10T15:32:38.000Z</time>
      </trkpt>
      <trkpt lat="43.471" lon="6.61588">
        <ele>41.3</ele>
        <time>2021-12-10T15:32:47.000Z</time>
      </trkpt>
      <trkpt lat="43.47094" lon="6.61598">
        <ele>40.6</ele>
        <time>2021-12-10T15:32:56.000Z</time>
      </trkpt>
      <trkpt lat="43.47088" lon="6.61608">
        <ele>40.6</ele>
        <time>2021-12-10T15:33:05.000Z</time>
      </trkpt>
      <trkpt lat="43.47084" lon="6.61619">
        <ele>40</ele>
        <time>2021-12-10T15:33:13.000Z</time>
      </trkpt>
      <trkpt lat="43.47078" lon="6.61629">
        <ele>39.9</ele>
        <time>2021-12-10T15:33:21.000Z</time>
      </trkpt>
      <trkpt lat="43.47074" lon="6.6164">
        <ele>39.8</ele>
        <time>2021-12-10T15:33:30.000Z</time>
      </trkpt>
      <trkpt lat="43.4707" lon="6.61652">
        <ele>39.4</ele>
        <time>2021-12-10T15:33:39.000Z</time>
      </trkpt>
      <trkpt lat="43.47066" lon="6.61664">
        <ele>39.4</ele>
        <time>2021-12-10T15:33:49.000Z</time>
      </trkpt>
      <trkpt lat="43.47063" lon="6.61676">
        <ele>39.5</ele>
        <time>2021-12-10T15:33:59.000Z</time>
      </trkpt>
      <trkpt lat="43.47059" lon="6.61689">
        <ele>39.5</ele>
        <time>2021-12-10T15:34:08.000Z</time>
      </trkpt>
      <trkpt lat="43.47057" lon="6.61701">
        <ele>39.2</ele>
        <time>2021-12-10T15:34:17.000Z</time>
      </trkpt>
      <trkpt lat="43.47051" lon="6.61712">
        <ele>39.4</ele>
        <time>2021-12-10T15:34:26.000Z</time>
      </trkpt>
      <trkpt lat="43.47045" lon="6.61724">
        <ele>39.4</ele>
        <time>2021-12-10T15:34:36.000Z</time>
      </trkpt>
      <trkpt lat="43.4704" lon="6.61735">
        <ele>40.1</ele>
        <time>2021-12-10T15:34:46.000Z</time>
      </trkpt>
      <trkpt lat="43.47035" lon="6.61746">
        <ele>40.4</ele>
        <time>2021-12-10T15:34:54.000Z</time>
      </trkpt>
      <trkpt lat="43.4703" lon="6.61757">
        <ele>40.6</ele>
        <time>2021-12-10T15:35:03.000Z</time>
      </trkpt>
      <trkpt lat="43.47023" lon="6.61766">
        <ele>41</ele>
        <time>2021-12-10T15:35:11.000Z</time>
      </trkpt>
      <trkpt lat="43.47016" lon="6.61775">
        <ele>41.1</ele>
        <time>2021-12-10T15:35:20.000Z</time>
      </trkpt>
      <trkpt lat="43.4701" lon="6.61786">
        <ele>41</ele>
        <time>2021-12-10T15:35:28.000Z</time>
      </trkpt>
      <trkpt lat="43.47005" lon="6.61797">
        <ele>41.3</ele>
        <time>2021-12-10T15:35:37.000Z</time>
      </trkpt>
      <trkpt lat="43.46998" lon="6.61806">
        <ele>41.1</ele>
        <time>2021-12-10T15:35:46.000Z</time>
      </trkpt>
      <trkpt lat="43.46992" lon="6.61816">
        <ele>40.8</ele>
        <time>2021-12-10T15:35:54.000Z</time>
      </trkpt>
      <trkpt lat="43.46985" lon="6.61827">
        <ele>40.8</ele>
        <time>2021-12-10T15:36:03.000Z</time>
      </trkpt>
      <trkpt lat="43.46978" lon="6.61835">
        <ele>41</ele>
        <time>2021-12-10T15:36:11.000Z</time>
      </trkpt>
      <trkpt lat="43.46973" lon="6.61845">
        <ele>40.7</ele>
        <time>2021-12-10T15:36:19.000Z</time>
      </trkpt>
      <trkpt lat="43.46967" lon="6.61855">
        <ele>40.9</ele>
        <time>2021-12-10T15:36:40.000Z</time>
      </trkpt>
      <trkpt lat="43.4696" lon="6.61846">
        <ele>41.2</ele>
        <time>2021-12-10T15:36:51.000Z</time>
      </trkpt>
      <trkpt lat="43.46952" lon="6.61839">
        <ele>40.6</ele>
        <time>2021-12-10T15:37:00.000Z</time>
      </trkpt>
      <trkpt lat="43.46954" lon="6.61854">
        <ele>39.9</ele>
        <time>2021-12-10T15:37:44.000Z</time>
      </trkpt>
      <trkpt lat="43.46948" lon="6.61865">
        <ele>40.2</ele>
        <time>2021-12-10T15:37:49.000Z</time>
      </trkpt>
      <trkpt lat="43.4694" lon="6.61874">
        <ele>40.5</ele>
        <time>2021-12-10T15:37:56.000Z</time>
      </trkpt>
      <trkpt lat="43.46933" lon="6.61883">
        <ele>40.1</ele>
        <time>2021-12-10T15:38:00.000Z</time>
      </trkpt>
      <trkpt lat="43.46925" lon="6.61892">
        <ele>39.8</ele>
        <time>2021-12-10T15:38:05.000Z</time>
      </trkpt>
      <trkpt lat="43.46919" lon="6.61902">
        <ele>39.9</ele>
        <time>2021-12-10T15:38:11.000Z</time>
      </trkpt>
      <trkpt lat="43.46913" lon="6.61911">
        <ele>39.7</ele>
        <time>2021-12-10T15:38:20.000Z</time>
      </trkpt>
      <trkpt lat="43.46904" lon="6.6192">
        <ele>40.4</ele>
        <time>2021-12-10T15:39:51.000Z</time>
      </trkpt>
      <trkpt lat="43.46904" lon="6.61921">
        <ele>40.4</ele>
        <time>2021-12-10T15:39:52.000Z</time>
      </trkpt>
    </trkseg>
  </trk>
</gpx>